<?xml version="1.0" encoding="UTF-8" standalone="no" ?>
<gpx xmlns="http://www.topografix.com/GPX/1/1" xmlns:xsi="http://www.w3.org/2001/XMLSchema-instance" xsi:schemaLocation="http://www.topografix.com/GPX/1/1 http://www.topografix.com/GPX/1/1/gpx.xsd" version="1.1" creator="VisuGPX - https://www.visugpx.com">
  <metadata>
    <name>Carrières de Beaulieu</name>
    <desc><![CDATA[File with points/tracks from Locus Map Classic/3.70.17]]></desc>
  </metadata>
  <trk>
    <name><![CDATA[2025-10-10 09:06]]></name>
    <extensions>
      <line xmlns="http://www.topografix.com/GPX/gpx_style/0/2">
        <color>0000FF</color>
        <opacity>0.59</opacity>
        <width>6.0</width>
      </line>
    </extensions>
    <trkseg>
      <trkpt lat="43.7131" lon="4.02459">
        <ele>87.86</ele>
        <time>2025-10-10T07:06:25.118Z</time>
      </trkpt>
      <trkpt lat="43.71308" lon="4.02454">
        <ele>87.26</ele>
        <time>2025-10-10T07:06:30.608Z</time>
      </trkpt>
      <trkpt lat="43.71306" lon="4.02449">
        <ele>89.94</ele>
        <time>2025-10-10T07:06:35.868Z</time>
      </trkpt>
      <trkpt lat="43.71303" lon="4.02442">
        <ele>89.05</ele>
        <time>2025-10-10T07:06:41.040Z</time>
      </trkpt>
      <trkpt lat="43.71299" lon="4.02438">
        <ele>87.66</ele>
        <time>2025-10-10T07:06:46.088Z</time>
      </trkpt>
      <trkpt lat="43.71293" lon="4.02437">
        <ele>89.09</ele>
        <time>2025-10-10T07:06:51.399Z</time>
      </trkpt>
      <trkpt lat="43.71289" lon="4.02434">
        <ele>87.09</ele>
        <time>2025-10-10T07:06:56.655Z</time>
      </trkpt>
      <trkpt lat="43.71283" lon="4.0243">
        <ele>85.48</ele>
        <time>2025-10-10T07:07:02.095Z</time>
      </trkpt>
      <trkpt lat="43.71277" lon="4.02426">
        <ele>87.7</ele>
        <time>2025-10-10T07:07:07.379Z</time>
      </trkpt>
      <trkpt lat="43.7127" lon="4.02425">
        <ele>85.89</ele>
        <time>2025-10-10T07:07:12.601Z</time>
      </trkpt>
      <trkpt lat="43.71265" lon="4.02426">
        <ele>85.58</ele>
        <time>2025-10-10T07:07:18.013Z</time>
      </trkpt>
      <trkpt lat="43.71258" lon="4.02434">
        <ele>85.46</ele>
        <time>2025-10-10T07:07:23.282Z</time>
      </trkpt>
      <trkpt lat="43.71252" lon="4.02433">
        <ele>85.27</ele>
        <time>2025-10-10T07:07:28.742Z</time>
      </trkpt>
      <trkpt lat="43.71247" lon="4.02427">
        <ele>84.88</ele>
        <time>2025-10-10T07:07:34.360Z</time>
      </trkpt>
      <trkpt lat="43.71242" lon="4.0242">
        <ele>85.25</ele>
        <time>2025-10-10T07:07:39.820Z</time>
      </trkpt>
      <trkpt lat="43.71237" lon="4.02417">
        <ele>85.18</ele>
        <time>2025-10-10T07:07:45.118Z</time>
      </trkpt>
      <trkpt lat="43.71232" lon="4.02412">
        <ele>84.54</ele>
        <time>2025-10-10T07:07:50.133Z</time>
      </trkpt>
      <trkpt lat="43.71229" lon="4.02403">
        <ele>85.01</ele>
        <time>2025-10-10T07:07:55.563Z</time>
      </trkpt>
      <trkpt lat="43.71224" lon="4.02394">
        <ele>84.67</ele>
        <time>2025-10-10T07:08:01.004Z</time>
      </trkpt>
      <trkpt lat="43.71218" lon="4.02388">
        <ele>83.27</ele>
        <time>2025-10-10T07:08:06.033Z</time>
      </trkpt>
      <trkpt lat="43.71213" lon="4.02379">
        <ele>83.55</ele>
        <time>2025-10-10T07:08:11.408Z</time>
      </trkpt>
      <trkpt lat="43.7121" lon="4.02373">
        <ele>83.64</ele>
        <time>2025-10-10T07:08:17.033Z</time>
      </trkpt>
      <trkpt lat="43.71207" lon="4.02366">
        <ele>84.69</ele>
        <time>2025-10-10T07:08:22.048Z</time>
      </trkpt>
      <trkpt lat="43.71207" lon="4.02352">
        <ele>83.42</ele>
        <time>2025-10-10T07:08:27.548Z</time>
      </trkpt>
      <trkpt lat="43.71204" lon="4.02343">
        <ele>82.73</ele>
        <time>2025-10-10T07:08:32.625Z</time>
      </trkpt>
      <trkpt lat="43.71198" lon="4.02335">
        <ele>83.65</ele>
        <time>2025-10-10T07:08:38.054Z</time>
      </trkpt>
      <trkpt lat="43.7119" lon="4.02332">
        <ele>84.36</ele>
        <time>2025-10-10T07:08:43.685Z</time>
      </trkpt>
      <trkpt lat="43.71184" lon="4.02331">
        <ele>83.01</ele>
        <time>2025-10-10T07:08:48.705Z</time>
      </trkpt>
      <trkpt lat="43.71181" lon="4.02322">
        <ele>82.18</ele>
        <time>2025-10-10T07:08:54.059Z</time>
      </trkpt>
      <trkpt lat="43.7118" lon="4.02312">
        <ele>82.82</ele>
        <time>2025-10-10T07:08:59.478Z</time>
      </trkpt>
      <trkpt lat="43.71177" lon="4.02303">
        <ele>83.34</ele>
        <time>2025-10-10T07:09:04.647Z</time>
      </trkpt>
      <trkpt lat="43.71171" lon="4.023">
        <ele>82.38</ele>
        <time>2025-10-10T07:09:10.066Z</time>
      </trkpt>
      <trkpt lat="43.71165" lon="4.02298">
        <ele>81.01</ele>
        <time>2025-10-10T07:09:15.708Z</time>
      </trkpt>
      <trkpt lat="43.71161" lon="4.02295">
        <ele>81.94</ele>
        <time>2025-10-10T07:09:21.057Z</time>
      </trkpt>
      <trkpt lat="43.71158" lon="4.02287">
        <ele>81.48</ele>
        <time>2025-10-10T07:09:26.581Z</time>
      </trkpt>
      <trkpt lat="43.71155" lon="4.0228">
        <ele>81.14</ele>
        <time>2025-10-10T07:09:32.040Z</time>
      </trkpt>
      <trkpt lat="43.71153" lon="4.02271">
        <ele>80.2</ele>
        <time>2025-10-10T07:09:37.063Z</time>
      </trkpt>
      <trkpt lat="43.71154" lon="4.02259">
        <ele>80.33</ele>
        <time>2025-10-10T07:09:43.068Z</time>
      </trkpt>
      <trkpt lat="43.71155" lon="4.02249">
        <ele>78.76</ele>
        <time>2025-10-10T07:09:48.704Z</time>
      </trkpt>
      <trkpt lat="43.71158" lon="4.02241">
        <ele>77.6</ele>
        <time>2025-10-10T07:09:53.765Z</time>
      </trkpt>
      <trkpt lat="43.7116" lon="4.02236">
        <ele>77.55</ele>
        <time>2025-10-10T07:09:58.781Z</time>
      </trkpt>
      <trkpt lat="43.71159" lon="4.02237">
        <ele>77.48</ele>
        <time>2025-10-10T07:10:06.160Z</time>
      </trkpt>
      <trkpt lat="43.71158" lon="4.02234">
        <ele>77.31</ele>
        <time>2025-10-10T07:10:12.002Z</time>
      </trkpt>
      <trkpt lat="43.7116" lon="4.02224">
        <ele>78.84</ele>
        <time>2025-10-10T07:10:17.504Z</time>
      </trkpt>
      <trkpt lat="43.71161" lon="4.02216">
        <ele>75.76</ele>
        <time>2025-10-10T07:10:23.002Z</time>
      </trkpt>
      <trkpt lat="43.71162" lon="4.02207">
        <ele>75.88</ele>
        <time>2025-10-10T07:10:29.120Z</time>
      </trkpt>
      <trkpt lat="43.71164" lon="4.022">
        <ele>76.24</ele>
        <time>2025-10-10T07:10:34.394Z</time>
      </trkpt>
      <trkpt lat="43.71166" lon="4.02197">
        <ele>76.71</ele>
        <time>2025-10-10T07:10:39.916Z</time>
      </trkpt>
      <trkpt lat="43.71166" lon="4.02193">
        <ele>76.62</ele>
        <time>2025-10-10T07:10:45.402Z</time>
      </trkpt>
      <trkpt lat="43.71167" lon="4.02194">
        <ele>77.1</ele>
        <time>2025-10-10T07:10:51.134Z</time>
      </trkpt>
      <trkpt lat="43.71167" lon="4.02195">
        <ele>75.1</ele>
        <time>2025-10-10T07:10:57.109Z</time>
      </trkpt>
      <trkpt lat="43.71168" lon="4.02196">
        <ele>75.32</ele>
        <time>2025-10-10T07:11:11.087Z</time>
      </trkpt>
      <trkpt lat="43.7117" lon="4.02189">
        <ele>74.56</ele>
        <time>2025-10-10T07:11:16.976Z</time>
      </trkpt>
      <trkpt lat="43.71168" lon="4.02183">
        <ele>73.74</ele>
        <time>2025-10-10T07:11:22.398Z</time>
      </trkpt>
      <trkpt lat="43.71166" lon="4.02177">
        <ele>74.27</ele>
        <time>2025-10-10T07:11:27.736Z</time>
      </trkpt>
      <trkpt lat="43.71166" lon="4.02175">
        <ele>74.46</ele>
        <time>2025-10-10T07:11:33.068Z</time>
      </trkpt>
      <trkpt lat="43.71166" lon="4.02176">
        <ele>73.14</ele>
        <time>2025-10-10T07:11:38.083Z</time>
      </trkpt>
      <trkpt lat="43.71165" lon="4.02174">
        <ele>73.07</ele>
        <time>2025-10-10T07:11:43.421Z</time>
      </trkpt>
      <trkpt lat="43.71166" lon="4.02164">
        <ele>72.57</ele>
        <time>2025-10-10T07:11:48.720Z</time>
      </trkpt>
      <trkpt lat="43.71168" lon="4.02155">
        <ele>73.33</ele>
        <time>2025-10-10T07:11:53.900Z</time>
      </trkpt>
      <trkpt lat="43.71168" lon="4.02148">
        <ele>73.5</ele>
        <time>2025-10-10T07:11:59.716Z</time>
      </trkpt>
      <trkpt lat="43.71165" lon="4.02144">
        <ele>73.4</ele>
        <time>2025-10-10T07:12:04.816Z</time>
      </trkpt>
      <trkpt lat="43.71164" lon="4.02136">
        <ele>73.39</ele>
        <time>2025-10-10T07:12:09.906Z</time>
      </trkpt>
      <trkpt lat="43.71166" lon="4.02131">
        <ele>72.23</ele>
        <time>2025-10-10T07:12:15.109Z</time>
      </trkpt>
      <trkpt lat="43.71169" lon="4.02129">
        <ele>71.02</ele>
        <time>2025-10-10T07:12:20.871Z</time>
      </trkpt>
      <trkpt lat="43.71173" lon="4.02122">
        <ele>70.92</ele>
        <time>2025-10-10T07:12:26.860Z</time>
      </trkpt>
      <trkpt lat="43.71177" lon="4.02118">
        <ele>70.97</ele>
        <time>2025-10-10T07:12:32.075Z</time>
      </trkpt>
      <trkpt lat="43.71178" lon="4.02112">
        <ele>70.03</ele>
        <time>2025-10-10T07:12:37.117Z</time>
      </trkpt>
      <trkpt lat="43.71181" lon="4.0211">
        <ele>70.04</ele>
        <time>2025-10-10T07:12:42.749Z</time>
      </trkpt>
      <trkpt lat="43.7118" lon="4.02102">
        <ele>70.43</ele>
        <time>2025-10-10T07:12:47.951Z</time>
      </trkpt>
      <trkpt lat="43.7118" lon="4.02095">
        <ele>69.21</ele>
        <time>2025-10-10T07:12:53.011Z</time>
      </trkpt>
      <trkpt lat="43.71184" lon="4.02093">
        <ele>69.49</ele>
        <time>2025-10-10T07:12:58.057Z</time>
      </trkpt>
      <trkpt lat="43.71186" lon="4.02092">
        <ele>68.72</ele>
        <time>2025-10-10T07:13:03.849Z</time>
      </trkpt>
      <trkpt lat="43.71186" lon="4.02089">
        <ele>67.69</ele>
        <time>2025-10-10T07:13:08.867Z</time>
      </trkpt>
      <trkpt lat="43.71185" lon="4.02089">
        <ele>67.07</ele>
        <time>2025-10-10T07:13:15.129Z</time>
      </trkpt>
      <trkpt lat="43.71184" lon="4.02087">
        <ele>66.66</ele>
        <time>2025-10-10T07:13:20.770Z</time>
      </trkpt>
      <trkpt lat="43.71183" lon="4.02086">
        <ele>66.01</ele>
        <time>2025-10-10T07:13:26.120Z</time>
      </trkpt>
      <trkpt lat="43.71182" lon="4.02086">
        <ele>65.82</ele>
        <time>2025-10-10T07:13:31.624Z</time>
      </trkpt>
      <trkpt lat="43.71177" lon="4.02086">
        <ele>65.24</ele>
        <time>2025-10-10T07:13:37.031Z</time>
      </trkpt>
      <trkpt lat="43.71172" lon="4.02085">
        <ele>62.72</ele>
        <time>2025-10-10T07:13:42.125Z</time>
      </trkpt>
      <trkpt lat="43.7117" lon="4.02089">
        <ele>63.91</ele>
        <time>2025-10-10T07:13:47.925Z</time>
      </trkpt>
      <trkpt lat="43.71166" lon="4.02091">
        <ele>63.44</ele>
        <time>2025-10-10T07:13:53.083Z</time>
      </trkpt>
      <trkpt lat="43.7116" lon="4.02093">
        <ele>63.35</ele>
        <time>2025-10-10T07:13:58.987Z</time>
      </trkpt>
      <trkpt lat="43.71159" lon="4.02097">
        <ele>62.85</ele>
        <time>2025-10-10T07:14:04.319Z</time>
      </trkpt>
      <trkpt lat="43.71158" lon="4.02096">
        <ele>63.97</ele>
        <time>2025-10-10T07:14:09.728Z</time>
      </trkpt>
      <trkpt lat="43.71159" lon="4.02093">
        <ele>64.02</ele>
        <time>2025-10-10T07:14:15.096Z</time>
      </trkpt>
      <trkpt lat="43.71159" lon="4.02092">
        <ele>62.23</ele>
        <time>2025-10-10T07:14:23.739Z</time>
      </trkpt>
      <trkpt lat="43.71158" lon="4.02092">
        <ele>62.39</ele>
        <time>2025-10-10T07:14:31.930Z</time>
      </trkpt>
      <trkpt lat="43.71159" lon="4.02093">
        <ele>62.86</ele>
        <time>2025-10-10T07:14:36.930Z</time>
      </trkpt>
      <trkpt lat="43.7116" lon="4.02094">
        <ele>62.88</ele>
        <time>2025-10-10T07:14:41.930Z</time>
      </trkpt>
      <trkpt lat="43.71161" lon="4.02094">
        <ele>63</ele>
        <time>2025-10-10T07:14:55.788Z</time>
      </trkpt>
      <trkpt lat="43.71163" lon="4.02093">
        <ele>62.69</ele>
        <time>2025-10-10T07:15:01.084Z</time>
      </trkpt>
      <trkpt lat="43.71165" lon="4.02094">
        <ele>63.38</ele>
        <time>2025-10-10T07:15:06.721Z</time>
      </trkpt>
      <trkpt lat="43.71169" lon="4.0209">
        <ele>63.15</ele>
        <time>2025-10-10T07:15:12.074Z</time>
      </trkpt>
      <trkpt lat="43.71172" lon="4.02088">
        <ele>64.57</ele>
        <time>2025-10-10T07:15:17.089Z</time>
      </trkpt>
      <trkpt lat="43.71171" lon="4.02086">
        <ele>62.54</ele>
        <time>2025-10-10T07:15:27.118Z</time>
      </trkpt>
      <trkpt lat="43.71172" lon="4.02084">
        <ele>62.37</ele>
        <time>2025-10-10T07:15:32.134Z</time>
      </trkpt>
      <trkpt lat="43.71174" lon="4.02076">
        <ele>62.87</ele>
        <time>2025-10-10T07:15:37.651Z</time>
      </trkpt>
      <trkpt lat="43.71173" lon="4.02066">
        <ele>62.5</ele>
        <time>2025-10-10T07:15:43.054Z</time>
      </trkpt>
      <trkpt lat="43.7117" lon="4.02058">
        <ele>62.27</ele>
        <time>2025-10-10T07:15:48.487Z</time>
      </trkpt>
      <trkpt lat="43.71168" lon="4.02052">
        <ele>63.37</ele>
        <time>2025-10-10T07:15:53.912Z</time>
      </trkpt>
      <trkpt lat="43.71163" lon="4.02049">
        <ele>63.34</ele>
        <time>2025-10-10T07:15:59.354Z</time>
      </trkpt>
      <trkpt lat="43.71156" lon="4.02046">
        <ele>60.36</ele>
        <time>2025-10-10T07:16:05.104Z</time>
      </trkpt>
      <trkpt lat="43.71151" lon="4.02043">
        <ele>60.62</ele>
        <time>2025-10-10T07:16:10.131Z</time>
      </trkpt>
      <trkpt lat="43.71146" lon="4.02041">
        <ele>63.68</ele>
        <time>2025-10-10T07:16:15.136Z</time>
      </trkpt>
      <trkpt lat="43.7114" lon="4.02038">
        <ele>63.55</ele>
        <time>2025-10-10T07:16:20.655Z</time>
      </trkpt>
      <trkpt lat="43.71136" lon="4.02034">
        <ele>64.37</ele>
        <time>2025-10-10T07:16:25.772Z</time>
      </trkpt>
      <trkpt lat="43.71131" lon="4.02034">
        <ele>66.45</ele>
        <time>2025-10-10T07:16:31.009Z</time>
      </trkpt>
      <trkpt lat="43.71126" lon="4.02029">
        <ele>64.43</ele>
        <time>2025-10-10T07:16:36.193Z</time>
      </trkpt>
      <trkpt lat="43.7112" lon="4.02022">
        <ele>64.11</ele>
        <time>2025-10-10T07:16:41.928Z</time>
      </trkpt>
      <trkpt lat="43.71115" lon="4.0202">
        <ele>64.24</ele>
        <time>2025-10-10T07:16:47.069Z</time>
      </trkpt>
      <trkpt lat="43.7111" lon="4.02017">
        <ele>64.75</ele>
        <time>2025-10-10T07:16:52.734Z</time>
      </trkpt>
      <trkpt lat="43.71104" lon="4.02012">
        <ele>64.01</ele>
        <time>2025-10-10T07:16:57.934Z</time>
      </trkpt>
      <trkpt lat="43.71097" lon="4.02014">
        <ele>61.56</ele>
        <time>2025-10-10T07:17:03.448Z</time>
      </trkpt>
      <trkpt lat="43.71091" lon="4.02018">
        <ele>62.16</ele>
        <time>2025-10-10T07:17:08.615Z</time>
      </trkpt>
      <trkpt lat="43.71084" lon="4.02019">
        <ele>63.62</ele>
        <time>2025-10-10T07:17:14.047Z</time>
      </trkpt>
      <trkpt lat="43.71078" lon="4.0202">
        <ele>66.25</ele>
        <time>2025-10-10T07:17:19.051Z</time>
      </trkpt>
      <trkpt lat="43.71075" lon="4.02016">
        <ele>64.51</ele>
        <time>2025-10-10T07:17:24.175Z</time>
      </trkpt>
      <trkpt lat="43.71066" lon="4.02018">
        <ele>63.39</ele>
        <time>2025-10-10T07:17:29.714Z</time>
      </trkpt>
      <trkpt lat="43.71059" lon="4.02019">
        <ele>63.88</ele>
        <time>2025-10-10T07:17:34.978Z</time>
      </trkpt>
      <trkpt lat="43.71053" lon="4.02021">
        <ele>63.32</ele>
        <time>2025-10-10T07:17:40.072Z</time>
      </trkpt>
      <trkpt lat="43.71047" lon="4.02023">
        <ele>63.29</ele>
        <time>2025-10-10T07:17:45.073Z</time>
      </trkpt>
      <trkpt lat="43.71042" lon="4.0202">
        <ele>63.43</ele>
        <time>2025-10-10T07:17:50.528Z</time>
      </trkpt>
      <trkpt lat="43.71036" lon="4.02017">
        <ele>63.53</ele>
        <time>2025-10-10T07:17:55.573Z</time>
      </trkpt>
      <trkpt lat="43.71029" lon="4.02018">
        <ele>63.52</ele>
        <time>2025-10-10T07:18:00.716Z</time>
      </trkpt>
      <trkpt lat="43.71023" lon="4.02017">
        <ele>63.75</ele>
        <time>2025-10-10T07:18:06.042Z</time>
      </trkpt>
      <trkpt lat="43.71017" lon="4.02019">
        <ele>63.11</ele>
        <time>2025-10-10T07:18:11.774Z</time>
      </trkpt>
      <trkpt lat="43.71015" lon="4.02028">
        <ele>63.31</ele>
        <time>2025-10-10T07:18:17.097Z</time>
      </trkpt>
      <trkpt lat="43.71014" lon="4.02036">
        <ele>63.12</ele>
        <time>2025-10-10T07:18:22.176Z</time>
      </trkpt>
      <trkpt lat="43.71013" lon="4.02045">
        <ele>62.55</ele>
        <time>2025-10-10T07:18:27.529Z</time>
      </trkpt>
      <trkpt lat="43.71013" lon="4.02052">
        <ele>62.14</ele>
        <time>2025-10-10T07:18:32.875Z</time>
      </trkpt>
      <trkpt lat="43.71013" lon="4.02061">
        <ele>62.32</ele>
        <time>2025-10-10T07:18:38.857Z</time>
      </trkpt>
      <trkpt lat="43.71008" lon="4.02065">
        <ele>63.02</ele>
        <time>2025-10-10T07:18:44.353Z</time>
      </trkpt>
      <trkpt lat="43.71001" lon="4.02068">
        <ele>63.29</ele>
        <time>2025-10-10T07:18:49.556Z</time>
      </trkpt>
      <trkpt lat="43.70996" lon="4.02069">
        <ele>62.32</ele>
        <time>2025-10-10T07:18:54.873Z</time>
      </trkpt>
      <trkpt lat="43.70991" lon="4.02069">
        <ele>62.87</ele>
        <time>2025-10-10T07:19:00.153Z</time>
      </trkpt>
      <trkpt lat="43.70988" lon="4.02065">
        <ele>64.67</ele>
        <time>2025-10-10T07:19:05.836Z</time>
      </trkpt>
      <trkpt lat="43.70989" lon="4.02056">
        <ele>64.36</ele>
        <time>2025-10-10T07:19:11.088Z</time>
      </trkpt>
      <trkpt lat="43.70987" lon="4.02048">
        <ele>64.28</ele>
        <time>2025-10-10T07:19:16.103Z</time>
      </trkpt>
      <trkpt lat="43.70984" lon="4.02041">
        <ele>64.33</ele>
        <time>2025-10-10T07:19:21.140Z</time>
      </trkpt>
      <trkpt lat="43.70981" lon="4.02034">
        <ele>64.37</ele>
        <time>2025-10-10T07:19:26.952Z</time>
      </trkpt>
      <trkpt lat="43.7098" lon="4.02027">
        <ele>64.91</ele>
        <time>2025-10-10T07:19:32.314Z</time>
      </trkpt>
      <trkpt lat="43.70979" lon="4.02019">
        <ele>63.98</ele>
        <time>2025-10-10T07:19:37.715Z</time>
      </trkpt>
      <trkpt lat="43.70976" lon="4.02012">
        <ele>63.87</ele>
        <time>2025-10-10T07:19:42.773Z</time>
      </trkpt>
      <trkpt lat="43.70973" lon="4.02011">
        <ele>63.88</ele>
        <time>2025-10-10T07:19:48.112Z</time>
      </trkpt>
      <trkpt lat="43.70974" lon="4.02012">
        <ele>62.62</ele>
        <time>2025-10-10T07:19:57.075Z</time>
      </trkpt>
      <trkpt lat="43.70974" lon="4.02013">
        <ele>62.91</ele>
        <time>2025-10-10T07:20:07.937Z</time>
      </trkpt>
      <trkpt lat="43.70974" lon="4.02014">
        <ele>62.62</ele>
        <time>2025-10-10T07:20:50.938Z</time>
      </trkpt>
      <trkpt lat="43.70974" lon="4.02016">
        <ele>62.63</ele>
        <time>2025-10-10T07:20:56.794Z</time>
      </trkpt>
      <trkpt lat="43.70972" lon="4.02019">
        <ele>64.05</ele>
        <time>2025-10-10T07:21:02.162Z</time>
      </trkpt>
      <trkpt lat="43.70971" lon="4.0202">
        <ele>63.01</ele>
        <time>2025-10-10T07:21:26.939Z</time>
      </trkpt>
      <trkpt lat="43.7097" lon="4.02022">
        <ele>63.36</ele>
        <time>2025-10-10T07:21:31.939Z</time>
      </trkpt>
      <trkpt lat="43.70971" lon="4.02024">
        <ele>64.61</ele>
        <time>2025-10-10T07:21:37.277Z</time>
      </trkpt>
      <trkpt lat="43.70973" lon="4.02032">
        <ele>64.29</ele>
        <time>2025-10-10T07:21:42.790Z</time>
      </trkpt>
      <trkpt lat="43.70974" lon="4.0204">
        <ele>64.98</ele>
        <time>2025-10-10T07:21:48.952Z</time>
      </trkpt>
      <trkpt lat="43.70976" lon="4.02045">
        <ele>64.09</ele>
        <time>2025-10-10T07:21:54.091Z</time>
      </trkpt>
      <trkpt lat="43.70978" lon="4.02053">
        <ele>63.66</ele>
        <time>2025-10-10T07:21:59.614Z</time>
      </trkpt>
      <trkpt lat="43.70982" lon="4.02061">
        <ele>64.19</ele>
        <time>2025-10-10T07:22:05.115Z</time>
      </trkpt>
      <trkpt lat="43.70985" lon="4.02067">
        <ele>65.06</ele>
        <time>2025-10-10T07:22:10.551Z</time>
      </trkpt>
      <trkpt lat="43.70989" lon="4.0207">
        <ele>64.91</ele>
        <time>2025-10-10T07:22:15.735Z</time>
      </trkpt>
      <trkpt lat="43.70994" lon="4.02071">
        <ele>64.51</ele>
        <time>2025-10-10T07:22:21.595Z</time>
      </trkpt>
      <trkpt lat="43.70996" lon="4.02067">
        <ele>65.21</ele>
        <time>2025-10-10T07:22:27.095Z</time>
      </trkpt>
      <trkpt lat="43.70999" lon="4.02065">
        <ele>64.56</ele>
        <time>2025-10-10T07:22:32.897Z</time>
      </trkpt>
      <trkpt lat="43.71002" lon="4.02065">
        <ele>64.22</ele>
        <time>2025-10-10T07:22:38.311Z</time>
      </trkpt>
      <trkpt lat="43.71007" lon="4.02064">
        <ele>64.62</ele>
        <time>2025-10-10T07:22:43.415Z</time>
      </trkpt>
      <trkpt lat="43.71012" lon="4.02059">
        <ele>63.55</ele>
        <time>2025-10-10T07:22:48.754Z</time>
      </trkpt>
      <trkpt lat="43.71017" lon="4.02049">
        <ele>63.41</ele>
        <time>2025-10-10T07:22:54.093Z</time>
      </trkpt>
      <trkpt lat="43.71019" lon="4.02038">
        <ele>63.68</ele>
        <time>2025-10-10T07:22:59.776Z</time>
      </trkpt>
      <trkpt lat="43.71017" lon="4.02027">
        <ele>64.37</ele>
        <time>2025-10-10T07:23:05.081Z</time>
      </trkpt>
      <trkpt lat="43.71017" lon="4.02018">
        <ele>65.16</ele>
        <time>2025-10-10T07:23:10.313Z</time>
      </trkpt>
      <trkpt lat="43.7102" lon="4.02012">
        <ele>64.73</ele>
        <time>2025-10-10T07:23:15.774Z</time>
      </trkpt>
      <trkpt lat="43.71024" lon="4.02008">
        <ele>63.55</ele>
        <time>2025-10-10T07:23:20.876Z</time>
      </trkpt>
      <trkpt lat="43.71027" lon="4.02001">
        <ele>64.45</ele>
        <time>2025-10-10T07:23:25.918Z</time>
      </trkpt>
      <trkpt lat="43.71029" lon="4.01991">
        <ele>64.68</ele>
        <time>2025-10-10T07:23:30.932Z</time>
      </trkpt>
      <trkpt lat="43.71026" lon="4.01982">
        <ele>64.08</ele>
        <time>2025-10-10T07:23:36.439Z</time>
      </trkpt>
      <trkpt lat="43.7103" lon="4.01979">
        <ele>64.38</ele>
        <time>2025-10-10T07:23:42.106Z</time>
      </trkpt>
      <trkpt lat="43.71031" lon="4.01973">
        <ele>64.82</ele>
        <time>2025-10-10T07:23:47.177Z</time>
      </trkpt>
      <trkpt lat="43.7103" lon="4.01964">
        <ele>63.94</ele>
        <time>2025-10-10T07:23:52.807Z</time>
      </trkpt>
      <trkpt lat="43.71026" lon="4.01958">
        <ele>62.86</ele>
        <time>2025-10-10T07:23:58.111Z</time>
      </trkpt>
      <trkpt lat="43.71019" lon="4.01957">
        <ele>63.64</ele>
        <time>2025-10-10T07:24:03.982Z</time>
      </trkpt>
      <trkpt lat="43.71013" lon="4.01957">
        <ele>64.93</ele>
        <time>2025-10-10T07:24:09.585Z</time>
      </trkpt>
      <trkpt lat="43.71009" lon="4.01952">
        <ele>64.64</ele>
        <time>2025-10-10T07:24:15.123Z</time>
      </trkpt>
      <trkpt lat="43.71004" lon="4.01944">
        <ele>63.9</ele>
        <time>2025-10-10T07:24:20.824Z</time>
      </trkpt>
      <trkpt lat="43.70999" lon="4.01944">
        <ele>62.6</ele>
        <time>2025-10-10T07:24:26.905Z</time>
      </trkpt>
      <trkpt lat="43.70998" lon="4.01949">
        <ele>61.26</ele>
        <time>2025-10-10T07:24:32.041Z</time>
      </trkpt>
      <trkpt lat="43.70998" lon="4.01948">
        <ele>61.17</ele>
        <time>2025-10-10T07:24:44.098Z</time>
      </trkpt>
      <trkpt lat="43.70998" lon="4.01947">
        <ele>60.41</ele>
        <time>2025-10-10T07:24:50.073Z</time>
      </trkpt>
      <trkpt lat="43.70998" lon="4.01945">
        <ele>60.54</ele>
        <time>2025-10-10T07:24:56.155Z</time>
      </trkpt>
      <trkpt lat="43.70998" lon="4.01944">
        <ele>61.49</ele>
        <time>2025-10-10T07:25:02.023Z</time>
      </trkpt>
      <trkpt lat="43.70992" lon="4.01944">
        <ele>61.19</ele>
        <time>2025-10-10T07:25:07.479Z</time>
      </trkpt>
      <trkpt lat="43.70985" lon="4.01942">
        <ele>61.53</ele>
        <time>2025-10-10T07:25:13.122Z</time>
      </trkpt>
      <trkpt lat="43.70977" lon="4.01942">
        <ele>61.76</ele>
        <time>2025-10-10T07:25:18.780Z</time>
      </trkpt>
      <trkpt lat="43.70971" lon="4.01942">
        <ele>62.22</ele>
        <time>2025-10-10T07:25:24.139Z</time>
      </trkpt>
      <trkpt lat="43.70964" lon="4.0194">
        <ele>61.91</ele>
        <time>2025-10-10T07:25:29.617Z</time>
      </trkpt>
      <trkpt lat="43.70957" lon="4.01939">
        <ele>61.14</ele>
        <time>2025-10-10T07:25:35.100Z</time>
      </trkpt>
      <trkpt lat="43.7095" lon="4.01935">
        <ele>63.88</ele>
        <time>2025-10-10T07:25:40.982Z</time>
      </trkpt>
      <trkpt lat="43.70947" lon="4.01929">
        <ele>63.91</ele>
        <time>2025-10-10T07:25:46.117Z</time>
      </trkpt>
      <trkpt lat="43.70941" lon="4.01929">
        <ele>61.78</ele>
        <time>2025-10-10T07:25:51.725Z</time>
      </trkpt>
      <trkpt lat="43.70935" lon="4.01931">
        <ele>60.61</ele>
        <time>2025-10-10T07:25:56.878Z</time>
      </trkpt>
      <trkpt lat="43.70928" lon="4.0193">
        <ele>59.63</ele>
        <time>2025-10-10T07:26:02.498Z</time>
      </trkpt>
      <trkpt lat="43.70924" lon="4.01933">
        <ele>58.05</ele>
        <time>2025-10-10T07:26:07.564Z</time>
      </trkpt>
      <trkpt lat="43.70918" lon="4.01932">
        <ele>57.08</ele>
        <time>2025-10-10T07:26:13.085Z</time>
      </trkpt>
      <trkpt lat="43.70913" lon="4.01931">
        <ele>56.75</ele>
        <time>2025-10-10T07:26:18.100Z</time>
      </trkpt>
      <trkpt lat="43.70909" lon="4.01929">
        <ele>56.29</ele>
        <time>2025-10-10T07:26:23.113Z</time>
      </trkpt>
      <trkpt lat="43.70905" lon="4.01928">
        <ele>56.52</ele>
        <time>2025-10-10T07:26:28.497Z</time>
      </trkpt>
      <trkpt lat="43.70904" lon="4.01928">
        <ele>59.04</ele>
        <time>2025-10-10T07:26:34.104Z</time>
      </trkpt>
      <trkpt lat="43.70902" lon="4.01927">
        <ele>58.98</ele>
        <time>2025-10-10T07:26:39.119Z</time>
      </trkpt>
      <trkpt lat="43.70901" lon="4.01927">
        <ele>57.8</ele>
        <time>2025-10-10T07:26:44.134Z</time>
      </trkpt>
      <trkpt lat="43.70898" lon="4.01924">
        <ele>57.84</ele>
        <time>2025-10-10T07:26:50.120Z</time>
      </trkpt>
      <trkpt lat="43.70897" lon="4.01923">
        <ele>57.58</ele>
        <time>2025-10-10T07:26:57.538Z</time>
      </trkpt>
      <trkpt lat="43.70892" lon="4.0192">
        <ele>57.78</ele>
        <time>2025-10-10T07:27:02.717Z</time>
      </trkpt>
      <trkpt lat="43.70886" lon="4.01916">
        <ele>58.96</ele>
        <time>2025-10-10T07:27:07.779Z</time>
      </trkpt>
      <trkpt lat="43.70883" lon="4.01911">
        <ele>57.47</ele>
        <time>2025-10-10T07:27:13.155Z</time>
      </trkpt>
      <trkpt lat="43.70882" lon="4.01908">
        <ele>57.78</ele>
        <time>2025-10-10T07:27:18.171Z</time>
      </trkpt>
      <trkpt lat="43.70879" lon="4.019">
        <ele>58.4</ele>
        <time>2025-10-10T07:27:23.670Z</time>
      </trkpt>
      <trkpt lat="43.70874" lon="4.01895">
        <ele>58.54</ele>
        <time>2025-10-10T07:27:28.707Z</time>
      </trkpt>
      <trkpt lat="43.70868" lon="4.01892">
        <ele>58.72</ele>
        <time>2025-10-10T07:27:34.068Z</time>
      </trkpt>
      <trkpt lat="43.70864" lon="4.01893">
        <ele>61.56</ele>
        <time>2025-10-10T07:27:39.565Z</time>
      </trkpt>
      <trkpt lat="43.70856" lon="4.01886">
        <ele>61.16</ele>
        <time>2025-10-10T07:27:44.767Z</time>
      </trkpt>
      <trkpt lat="43.70849" lon="4.01882">
        <ele>59.25</ele>
        <time>2025-10-10T07:27:50.074Z</time>
      </trkpt>
      <trkpt lat="43.70843" lon="4.01879">
        <ele>58.6</ele>
        <time>2025-10-10T07:27:55.089Z</time>
      </trkpt>
      <trkpt lat="43.70844" lon="4.01875">
        <ele>59.22</ele>
        <time>2025-10-10T07:28:00.103Z</time>
      </trkpt>
      <trkpt lat="43.70843" lon="4.01876">
        <ele>59.64</ele>
        <time>2025-10-10T07:28:05.118Z</time>
      </trkpt>
      <trkpt lat="43.70841" lon="4.01876">
        <ele>57.96</ele>
        <time>2025-10-10T07:28:23.947Z</time>
      </trkpt>
      <trkpt lat="43.70837" lon="4.01877">
        <ele>58.84</ele>
        <time>2025-10-10T07:28:29.323Z</time>
      </trkpt>
      <trkpt lat="43.70832" lon="4.01875">
        <ele>59.71</ele>
        <time>2025-10-10T07:28:34.329Z</time>
      </trkpt>
      <trkpt lat="43.70825" lon="4.0188">
        <ele>64.16</ele>
        <time>2025-10-10T07:28:40.116Z</time>
      </trkpt>
      <trkpt lat="43.70818" lon="4.01879">
        <ele>61.41</ele>
        <time>2025-10-10T07:28:45.222Z</time>
      </trkpt>
      <trkpt lat="43.7081" lon="4.01875">
        <ele>60.18</ele>
        <time>2025-10-10T07:28:51.107Z</time>
      </trkpt>
      <trkpt lat="43.70804" lon="4.01872">
        <ele>58.83</ele>
        <time>2025-10-10T07:28:56.248Z</time>
      </trkpt>
      <trkpt lat="43.70799" lon="4.01866">
        <ele>58.96</ele>
        <time>2025-10-10T07:29:01.370Z</time>
      </trkpt>
      <trkpt lat="43.70794" lon="4.01863">
        <ele>61.45</ele>
        <time>2025-10-10T07:29:06.393Z</time>
      </trkpt>
      <trkpt lat="43.7079" lon="4.01855">
        <ele>59.53</ele>
        <time>2025-10-10T07:29:12.111Z</time>
      </trkpt>
      <trkpt lat="43.70782" lon="4.0185">
        <ele>59.66</ele>
        <time>2025-10-10T07:29:17.812Z</time>
      </trkpt>
      <trkpt lat="43.70776" lon="4.01847">
        <ele>59.27</ele>
        <time>2025-10-10T07:29:23.414Z</time>
      </trkpt>
      <trkpt lat="43.70769" lon="4.01844">
        <ele>58.77</ele>
        <time>2025-10-10T07:29:28.890Z</time>
      </trkpt>
      <trkpt lat="43.70763" lon="4.01841">
        <ele>58.79</ele>
        <time>2025-10-10T07:29:34.429Z</time>
      </trkpt>
      <trkpt lat="43.70757" lon="4.0184">
        <ele>58.33</ele>
        <time>2025-10-10T07:29:39.935Z</time>
      </trkpt>
      <trkpt lat="43.70751" lon="4.01841">
        <ele>58.3</ele>
        <time>2025-10-10T07:29:45.494Z</time>
      </trkpt>
      <trkpt lat="43.70744" lon="4.0184">
        <ele>58.41</ele>
        <time>2025-10-10T07:29:51.031Z</time>
      </trkpt>
      <trkpt lat="43.70737" lon="4.01838">
        <ele>57.75</ele>
        <time>2025-10-10T07:29:56.087Z</time>
      </trkpt>
      <trkpt lat="43.70729" lon="4.01836">
        <ele>58.01</ele>
        <time>2025-10-10T07:30:02.047Z</time>
      </trkpt>
      <trkpt lat="43.70721" lon="4.01835">
        <ele>57.93</ele>
        <time>2025-10-10T07:30:07.570Z</time>
      </trkpt>
      <trkpt lat="43.70715" lon="4.01833">
        <ele>57.41</ele>
        <time>2025-10-10T07:30:12.737Z</time>
      </trkpt>
      <trkpt lat="43.70708" lon="4.0183">
        <ele>57.61</ele>
        <time>2025-10-10T07:30:18.119Z</time>
      </trkpt>
      <trkpt lat="43.707" lon="4.01829">
        <ele>56.56</ele>
        <time>2025-10-10T07:30:23.869Z</time>
      </trkpt>
      <trkpt lat="43.70696" lon="4.01826">
        <ele>56.94</ele>
        <time>2025-10-10T07:30:28.873Z</time>
      </trkpt>
      <trkpt lat="43.7069" lon="4.01817">
        <ele>55.77</ele>
        <time>2025-10-10T07:30:34.430Z</time>
      </trkpt>
      <trkpt lat="43.70683" lon="4.01813">
        <ele>52.5</ele>
        <time>2025-10-10T07:30:39.952Z</time>
      </trkpt>
      <trkpt lat="43.70676" lon="4.01812">
        <ele>57.3</ele>
        <time>2025-10-10T07:30:45.443Z</time>
      </trkpt>
      <trkpt lat="43.70671" lon="4.01806">
        <ele>58.76</ele>
        <time>2025-10-10T07:30:50.534Z</time>
      </trkpt>
      <trkpt lat="43.70666" lon="4.01801">
        <ele>57.04</ele>
        <time>2025-10-10T07:30:55.840Z</time>
      </trkpt>
      <trkpt lat="43.70659" lon="4.01796">
        <ele>56.56</ele>
        <time>2025-10-10T07:31:01.840Z</time>
      </trkpt>
      <trkpt lat="43.70653" lon="4.01797">
        <ele>56.36</ele>
        <time>2025-10-10T07:31:07.150Z</time>
      </trkpt>
      <trkpt lat="43.70646" lon="4.01802">
        <ele>56.42</ele>
        <time>2025-10-10T07:31:13.075Z</time>
      </trkpt>
      <trkpt lat="43.7064" lon="4.01804">
        <ele>55.68</ele>
        <time>2025-10-10T07:31:18.140Z</time>
      </trkpt>
      <trkpt lat="43.70633" lon="4.01807">
        <ele>55.11</ele>
        <time>2025-10-10T07:31:24.216Z</time>
      </trkpt>
      <trkpt lat="43.70627" lon="4.01806">
        <ele>55.33</ele>
        <time>2025-10-10T07:31:29.819Z</time>
      </trkpt>
      <trkpt lat="43.70621" lon="4.01806">
        <ele>55.41</ele>
        <time>2025-10-10T07:31:35.105Z</time>
      </trkpt>
      <trkpt lat="43.70614" lon="4.01806">
        <ele>54.64</ele>
        <time>2025-10-10T07:31:40.121Z</time>
      </trkpt>
      <trkpt lat="43.70607" lon="4.01799">
        <ele>54.16</ele>
        <time>2025-10-10T07:31:45.877Z</time>
      </trkpt>
      <trkpt lat="43.70603" lon="4.01795">
        <ele>53.12</ele>
        <time>2025-10-10T07:31:51.111Z</time>
      </trkpt>
      <trkpt lat="43.70597" lon="4.01796">
        <ele>53.16</ele>
        <time>2025-10-10T07:31:56.479Z</time>
      </trkpt>
      <trkpt lat="43.7059" lon="4.01792">
        <ele>54.14</ele>
        <time>2025-10-10T07:32:02.094Z</time>
      </trkpt>
      <trkpt lat="43.70584" lon="4.01785">
        <ele>53.57</ele>
        <time>2025-10-10T07:32:07.732Z</time>
      </trkpt>
      <trkpt lat="43.70579" lon="4.01782">
        <ele>53.66</ele>
        <time>2025-10-10T07:32:13.476Z</time>
      </trkpt>
      <trkpt lat="43.70572" lon="4.01778">
        <ele>53.46</ele>
        <time>2025-10-10T07:32:19.000Z</time>
      </trkpt>
      <trkpt lat="43.70565" lon="4.01779">
        <ele>53.86</ele>
        <time>2025-10-10T07:32:24.574Z</time>
      </trkpt>
      <trkpt lat="43.70558" lon="4.01779">
        <ele>53.6</ele>
        <time>2025-10-10T07:32:30.081Z</time>
      </trkpt>
      <trkpt lat="43.70552" lon="4.01776">
        <ele>52.94</ele>
        <time>2025-10-10T07:32:35.760Z</time>
      </trkpt>
      <trkpt lat="43.70547" lon="4.01771">
        <ele>54.14</ele>
        <time>2025-10-10T07:32:41.153Z</time>
      </trkpt>
      <trkpt lat="43.70543" lon="4.01762">
        <ele>53.94</ele>
        <time>2025-10-10T07:32:46.702Z</time>
      </trkpt>
      <trkpt lat="43.70541" lon="4.01753">
        <ele>53.87</ele>
        <time>2025-10-10T07:32:51.817Z</time>
      </trkpt>
      <trkpt lat="43.70537" lon="4.01743">
        <ele>54.16</ele>
        <time>2025-10-10T07:32:58.118Z</time>
      </trkpt>
      <trkpt lat="43.7053" lon="4.01739">
        <ele>53.75</ele>
        <time>2025-10-10T07:33:03.670Z</time>
      </trkpt>
      <trkpt lat="43.70523" lon="4.01731">
        <ele>52.58</ele>
        <time>2025-10-10T07:33:09.108Z</time>
      </trkpt>
      <trkpt lat="43.70518" lon="4.01723">
        <ele>54.5</ele>
        <time>2025-10-10T07:33:14.590Z</time>
      </trkpt>
      <trkpt lat="43.70513" lon="4.01717">
        <ele>54.53</ele>
        <time>2025-10-10T07:33:19.718Z</time>
      </trkpt>
      <trkpt lat="43.70513" lon="4.01712">
        <ele>53.72</ele>
        <time>2025-10-10T07:33:25.113Z</time>
      </trkpt>
      <trkpt lat="43.70513" lon="4.01705">
        <ele>51.36</ele>
        <time>2025-10-10T07:33:30.128Z</time>
      </trkpt>
      <trkpt lat="43.70511" lon="4.01696">
        <ele>49.4</ele>
        <time>2025-10-10T07:33:35.348Z</time>
      </trkpt>
      <trkpt lat="43.70506" lon="4.01689">
        <ele>51.32</ele>
        <time>2025-10-10T07:33:40.907Z</time>
      </trkpt>
      <trkpt lat="43.70503" lon="4.01682">
        <ele>54.47</ele>
        <time>2025-10-10T07:33:46.446Z</time>
      </trkpt>
      <trkpt lat="43.70499" lon="4.01675">
        <ele>52.87</ele>
        <time>2025-10-10T07:33:51.684Z</time>
      </trkpt>
      <trkpt lat="43.70495" lon="4.01666">
        <ele>51.61</ele>
        <time>2025-10-10T07:33:57.124Z</time>
      </trkpt>
      <trkpt lat="43.7049" lon="4.01659">
        <ele>50.8</ele>
        <time>2025-10-10T07:34:02.407Z</time>
      </trkpt>
      <trkpt lat="43.70486" lon="4.01655">
        <ele>49.06</ele>
        <time>2025-10-10T07:34:07.547Z</time>
      </trkpt>
      <trkpt lat="43.70481" lon="4.01649">
        <ele>49.87</ele>
        <time>2025-10-10T07:34:13.129Z</time>
      </trkpt>
      <trkpt lat="43.70482" lon="4.01641">
        <ele>50.46</ele>
        <time>2025-10-10T07:34:19.105Z</time>
      </trkpt>
      <trkpt lat="43.70486" lon="4.01638">
        <ele>51.54</ele>
        <time>2025-10-10T07:34:24.673Z</time>
      </trkpt>
      <trkpt lat="43.70485" lon="4.01637">
        <ele>52.12</ele>
        <time>2025-10-10T07:34:30.095Z</time>
      </trkpt>
      <trkpt lat="43.70485" lon="4.01638">
        <ele>50.32</ele>
        <time>2025-10-10T07:34:37.138Z</time>
      </trkpt>
      <trkpt lat="43.70485" lon="4.01639">
        <ele>49.77</ele>
        <time>2025-10-10T07:34:56.955Z</time>
      </trkpt>
      <trkpt lat="43.70486" lon="4.01638">
        <ele>50.89</ele>
        <time>2025-10-10T07:36:01.956Z</time>
      </trkpt>
      <trkpt lat="43.70487" lon="4.01632">
        <ele>50.62</ele>
        <time>2025-10-10T07:36:08.038Z</time>
      </trkpt>
      <trkpt lat="43.70489" lon="4.01622">
        <ele>52.2</ele>
        <time>2025-10-10T07:36:14.178Z</time>
      </trkpt>
      <trkpt lat="43.70489" lon="4.01614">
        <ele>52.36</ele>
        <time>2025-10-10T07:36:19.736Z</time>
      </trkpt>
      <trkpt lat="43.70485" lon="4.01609">
        <ele>50.61</ele>
        <time>2025-10-10T07:36:24.984Z</time>
      </trkpt>
      <trkpt lat="43.70483" lon="4.016">
        <ele>48.92</ele>
        <time>2025-10-10T07:36:30.083Z</time>
      </trkpt>
      <trkpt lat="43.70479" lon="4.0159">
        <ele>51.37</ele>
        <time>2025-10-10T07:36:35.098Z</time>
      </trkpt>
      <trkpt lat="43.70477" lon="4.01582">
        <ele>52.37</ele>
        <time>2025-10-10T07:36:40.113Z</time>
      </trkpt>
      <trkpt lat="43.70474" lon="4.01574">
        <ele>51.57</ele>
        <time>2025-10-10T07:36:45.576Z</time>
      </trkpt>
      <trkpt lat="43.70469" lon="4.01566">
        <ele>50.31</ele>
        <time>2025-10-10T07:36:50.981Z</time>
      </trkpt>
      <trkpt lat="43.70465" lon="4.01559">
        <ele>50.47</ele>
        <time>2025-10-10T07:36:56.299Z</time>
      </trkpt>
      <trkpt lat="43.70459" lon="4.01554">
        <ele>50.5</ele>
        <time>2025-10-10T07:37:01.661Z</time>
      </trkpt>
      <trkpt lat="43.70457" lon="4.01548">
        <ele>49.82</ele>
        <time>2025-10-10T07:37:06.996Z</time>
      </trkpt>
      <trkpt lat="43.7046" lon="4.01542">
        <ele>50.73</ele>
        <time>2025-10-10T07:37:12.125Z</time>
      </trkpt>
      <trkpt lat="43.70465" lon="4.01536">
        <ele>51.31</ele>
        <time>2025-10-10T07:37:17.738Z</time>
      </trkpt>
      <trkpt lat="43.7047" lon="4.01531">
        <ele>49.76</ele>
        <time>2025-10-10T07:37:23.580Z</time>
      </trkpt>
      <trkpt lat="43.70476" lon="4.01529">
        <ele>50.55</ele>
        <time>2025-10-10T07:37:29.091Z</time>
      </trkpt>
      <trkpt lat="43.70482" lon="4.01526">
        <ele>51.46</ele>
        <time>2025-10-10T07:37:34.111Z</time>
      </trkpt>
      <trkpt lat="43.70481" lon="4.01522">
        <ele>51.29</ele>
        <time>2025-10-10T07:37:39.141Z</time>
      </trkpt>
      <trkpt lat="43.70481" lon="4.01517">
        <ele>54.6</ele>
        <time>2025-10-10T07:37:44.859Z</time>
      </trkpt>
      <trkpt lat="43.70485" lon="4.01512">
        <ele>55.6</ele>
        <time>2025-10-10T07:37:50.117Z</time>
      </trkpt>
      <trkpt lat="43.70493" lon="4.01512">
        <ele>55.1</ele>
        <time>2025-10-10T07:37:55.333Z</time>
      </trkpt>
      <trkpt lat="43.70498" lon="4.01509">
        <ele>54.33</ele>
        <time>2025-10-10T07:38:00.358Z</time>
      </trkpt>
      <trkpt lat="43.70505" lon="4.01507">
        <ele>54.14</ele>
        <time>2025-10-10T07:38:05.819Z</time>
      </trkpt>
      <trkpt lat="43.70509" lon="4.01501">
        <ele>54.01</ele>
        <time>2025-10-10T07:38:10.897Z</time>
      </trkpt>
      <trkpt lat="43.70511" lon="4.01493">
        <ele>54.81</ele>
        <time>2025-10-10T07:38:16.097Z</time>
      </trkpt>
      <trkpt lat="43.70514" lon="4.01483">
        <ele>55.05</ele>
        <time>2025-10-10T07:38:21.476Z</time>
      </trkpt>
      <trkpt lat="43.70513" lon="4.01474">
        <ele>54.67</ele>
        <time>2025-10-10T07:38:27.063Z</time>
      </trkpt>
      <trkpt lat="43.70511" lon="4.01465">
        <ele>54.08</ele>
        <time>2025-10-10T07:38:32.095Z</time>
      </trkpt>
      <trkpt lat="43.7051" lon="4.01456">
        <ele>53.87</ele>
        <time>2025-10-10T07:38:37.119Z</time>
      </trkpt>
      <trkpt lat="43.7051" lon="4.0145">
        <ele>54.16</ele>
        <time>2025-10-10T07:38:42.534Z</time>
      </trkpt>
      <trkpt lat="43.70515" lon="4.01442">
        <ele>54.49</ele>
        <time>2025-10-10T07:38:47.881Z</time>
      </trkpt>
      <trkpt lat="43.7052" lon="4.01439">
        <ele>54.03</ele>
        <time>2025-10-10T07:38:52.980Z</time>
      </trkpt>
      <trkpt lat="43.70527" lon="4.01438">
        <ele>53.06</ele>
        <time>2025-10-10T07:38:58.356Z</time>
      </trkpt>
      <trkpt lat="43.70534" lon="4.01438">
        <ele>52.02</ele>
        <time>2025-10-10T07:39:03.520Z</time>
      </trkpt>
      <trkpt lat="43.7054" lon="4.01437">
        <ele>51.88</ele>
        <time>2025-10-10T07:39:08.563Z</time>
      </trkpt>
      <trkpt lat="43.70545" lon="4.01433">
        <ele>52.49</ele>
        <time>2025-10-10T07:39:13.647Z</time>
      </trkpt>
      <trkpt lat="43.70551" lon="4.01432">
        <ele>52.57</ele>
        <time>2025-10-10T07:39:19.124Z</time>
      </trkpt>
      <trkpt lat="43.70557" lon="4.0143">
        <ele>51.7</ele>
        <time>2025-10-10T07:39:24.702Z</time>
      </trkpt>
      <trkpt lat="43.70563" lon="4.01428">
        <ele>51.74</ele>
        <time>2025-10-10T07:39:29.734Z</time>
      </trkpt>
      <trkpt lat="43.70568" lon="4.01426">
        <ele>52</ele>
        <time>2025-10-10T07:39:35.034Z</time>
      </trkpt>
      <trkpt lat="43.70575" lon="4.01426">
        <ele>51.86</ele>
        <time>2025-10-10T07:39:40.279Z</time>
      </trkpt>
      <trkpt lat="43.70582" lon="4.01431">
        <ele>51.39</ele>
        <time>2025-10-10T07:39:45.598Z</time>
      </trkpt>
      <trkpt lat="43.70587" lon="4.01437">
        <ele>50.91</ele>
        <time>2025-10-10T07:39:50.737Z</time>
      </trkpt>
      <trkpt lat="43.70592" lon="4.01439">
        <ele>49.73</ele>
        <time>2025-10-10T07:39:55.878Z</time>
      </trkpt>
      <trkpt lat="43.70596" lon="4.01447">
        <ele>49.76</ele>
        <time>2025-10-10T07:40:01.860Z</time>
      </trkpt>
      <trkpt lat="43.70602" lon="4.01449">
        <ele>50.37</ele>
        <time>2025-10-10T07:40:07.616Z</time>
      </trkpt>
      <trkpt lat="43.70608" lon="4.01449">
        <ele>51.04</ele>
        <time>2025-10-10T07:40:12.622Z</time>
      </trkpt>
      <trkpt lat="43.70611" lon="4.01454">
        <ele>48.56</ele>
        <time>2025-10-10T07:40:17.895Z</time>
      </trkpt>
      <trkpt lat="43.70615" lon="4.01455">
        <ele>48.33</ele>
        <time>2025-10-10T07:40:23.148Z</time>
      </trkpt>
      <trkpt lat="43.70615" lon="4.01447">
        <ele>51.12</ele>
        <time>2025-10-10T07:40:28.601Z</time>
      </trkpt>
      <trkpt lat="43.70617" lon="4.01438">
        <ele>50.25</ele>
        <time>2025-10-10T07:40:33.918Z</time>
      </trkpt>
      <trkpt lat="43.70614" lon="4.01431">
        <ele>53.12</ele>
        <time>2025-10-10T07:40:39.043Z</time>
      </trkpt>
      <trkpt lat="43.70612" lon="4.01423">
        <ele>56</ele>
        <time>2025-10-10T07:40:45.099Z</time>
      </trkpt>
      <trkpt lat="43.70606" lon="4.01418">
        <ele>51.65</ele>
        <time>2025-10-10T07:40:50.734Z</time>
      </trkpt>
      <trkpt lat="43.70607" lon="4.01411">
        <ele>50.85</ele>
        <time>2025-10-10T07:40:56.514Z</time>
      </trkpt>
      <trkpt lat="43.70611" lon="4.01409">
        <ele>50.44</ele>
        <time>2025-10-10T07:41:02.133Z</time>
      </trkpt>
      <trkpt lat="43.70616" lon="4.0141">
        <ele>50.78</ele>
        <time>2025-10-10T07:41:07.710Z</time>
      </trkpt>
      <trkpt lat="43.70623" lon="4.01409">
        <ele>50.86</ele>
        <time>2025-10-10T07:41:13.095Z</time>
      </trkpt>
      <trkpt lat="43.7063" lon="4.01408">
        <ele>50.46</ele>
        <time>2025-10-10T07:41:18.915Z</time>
      </trkpt>
      <trkpt lat="43.70638" lon="4.01406">
        <ele>49.91</ele>
        <time>2025-10-10T07:41:24.192Z</time>
      </trkpt>
      <trkpt lat="43.70645" lon="4.01407">
        <ele>48.6</ele>
        <time>2025-10-10T07:41:29.576Z</time>
      </trkpt>
      <trkpt lat="43.70651" lon="4.0141">
        <ele>48.07</ele>
        <time>2025-10-10T07:41:34.892Z</time>
      </trkpt>
      <trkpt lat="43.70657" lon="4.01411">
        <ele>47.33</ele>
        <time>2025-10-10T07:41:40.092Z</time>
      </trkpt>
      <trkpt lat="43.70662" lon="4.01412">
        <ele>46.95</ele>
        <time>2025-10-10T07:41:45.171Z</time>
      </trkpt>
      <trkpt lat="43.70669" lon="4.01412">
        <ele>47.24</ele>
        <time>2025-10-10T07:41:50.375Z</time>
      </trkpt>
      <trkpt lat="43.70676" lon="4.01413">
        <ele>47.09</ele>
        <time>2025-10-10T07:41:55.753Z</time>
      </trkpt>
      <trkpt lat="43.7068" lon="4.01419">
        <ele>47.15</ele>
        <time>2025-10-10T07:42:01.218Z</time>
      </trkpt>
      <trkpt lat="43.70684" lon="4.01422">
        <ele>48.11</ele>
        <time>2025-10-10T07:42:06.218Z</time>
      </trkpt>
      <trkpt lat="43.7069" lon="4.01425">
        <ele>48.8</ele>
        <time>2025-10-10T07:42:11.688Z</time>
      </trkpt>
      <trkpt lat="43.70696" lon="4.01428">
        <ele>49.28</ele>
        <time>2025-10-10T07:42:16.898Z</time>
      </trkpt>
      <trkpt lat="43.70701" lon="4.01431">
        <ele>49.75</ele>
        <time>2025-10-10T07:42:22.074Z</time>
      </trkpt>
      <trkpt lat="43.70707" lon="4.01435">
        <ele>49.98</ele>
        <time>2025-10-10T07:42:27.874Z</time>
      </trkpt>
      <trkpt lat="43.70712" lon="4.01438">
        <ele>50.56</ele>
        <time>2025-10-10T07:42:33.133Z</time>
      </trkpt>
      <trkpt lat="43.70716" lon="4.01437">
        <ele>51.71</ele>
        <time>2025-10-10T07:42:38.159Z</time>
      </trkpt>
      <trkpt lat="43.70722" lon="4.01436">
        <ele>51.54</ele>
        <time>2025-10-10T07:42:44.123Z</time>
      </trkpt>
      <trkpt lat="43.70727" lon="4.01437">
        <ele>52.62</ele>
        <time>2025-10-10T07:42:49.146Z</time>
      </trkpt>
      <trkpt lat="43.70733" lon="4.01437">
        <ele>52.18</ele>
        <time>2025-10-10T07:42:54.281Z</time>
      </trkpt>
      <trkpt lat="43.70738" lon="4.01441">
        <ele>52.45</ele>
        <time>2025-10-10T07:42:59.584Z</time>
      </trkpt>
      <trkpt lat="43.70746" lon="4.01444">
        <ele>53.07</ele>
        <time>2025-10-10T07:43:05.153Z</time>
      </trkpt>
      <trkpt lat="43.70753" lon="4.01448">
        <ele>53.02</ele>
        <time>2025-10-10T07:43:10.437Z</time>
      </trkpt>
      <trkpt lat="43.7076" lon="4.01451">
        <ele>53.67</ele>
        <time>2025-10-10T07:43:15.684Z</time>
      </trkpt>
      <trkpt lat="43.70766" lon="4.01453">
        <ele>53.23</ele>
        <time>2025-10-10T07:43:21.159Z</time>
      </trkpt>
      <trkpt lat="43.70772" lon="4.01455">
        <ele>53.52</ele>
        <time>2025-10-10T07:43:26.174Z</time>
      </trkpt>
      <trkpt lat="43.70778" lon="4.01457">
        <ele>53.78</ele>
        <time>2025-10-10T07:43:31.440Z</time>
      </trkpt>
      <trkpt lat="43.70782" lon="4.01453">
        <ele>54.28</ele>
        <time>2025-10-10T07:43:36.562Z</time>
      </trkpt>
      <trkpt lat="43.70788" lon="4.01453">
        <ele>53.55</ele>
        <time>2025-10-10T07:43:42.003Z</time>
      </trkpt>
      <trkpt lat="43.70795" lon="4.01457">
        <ele>53.33</ele>
        <time>2025-10-10T07:43:47.462Z</time>
      </trkpt>
      <trkpt lat="43.708" lon="4.01465">
        <ele>52.52</ele>
        <time>2025-10-10T07:43:52.942Z</time>
      </trkpt>
      <trkpt lat="43.70802" lon="4.01476">
        <ele>53.28</ele>
        <time>2025-10-10T07:43:58.464Z</time>
      </trkpt>
      <trkpt lat="43.70804" lon="4.01487">
        <ele>55.5</ele>
        <time>2025-10-10T07:44:04.100Z</time>
      </trkpt>
      <trkpt lat="43.70808" lon="4.01496">
        <ele>56.38</ele>
        <time>2025-10-10T07:44:09.692Z</time>
      </trkpt>
      <trkpt lat="43.70811" lon="4.01503">
        <ele>55.87</ele>
        <time>2025-10-10T07:44:15.126Z</time>
      </trkpt>
      <trkpt lat="43.70817" lon="4.01507">
        <ele>55.25</ele>
        <time>2025-10-10T07:44:21.121Z</time>
      </trkpt>
      <trkpt lat="43.70821" lon="4.01515">
        <ele>55.09</ele>
        <time>2025-10-10T07:44:26.143Z</time>
      </trkpt>
      <trkpt lat="43.70825" lon="4.01524">
        <ele>55.43</ele>
        <time>2025-10-10T07:44:31.720Z</time>
      </trkpt>
      <trkpt lat="43.70827" lon="4.01532">
        <ele>55.59</ele>
        <time>2025-10-10T07:44:37.134Z</time>
      </trkpt>
      <trkpt lat="43.70831" lon="4.0154">
        <ele>57.48</ele>
        <time>2025-10-10T07:44:42.302Z</time>
      </trkpt>
      <trkpt lat="43.70834" lon="4.01547">
        <ele>56.96</ele>
        <time>2025-10-10T07:44:47.345Z</time>
      </trkpt>
      <trkpt lat="43.70836" lon="4.01555">
        <ele>51.06</ele>
        <time>2025-10-10T07:44:52.385Z</time>
      </trkpt>
      <trkpt lat="43.7084" lon="4.01562">
        <ele>51.62</ele>
        <time>2025-10-10T07:44:58.026Z</time>
      </trkpt>
      <trkpt lat="43.70845" lon="4.01568">
        <ele>54.8</ele>
        <time>2025-10-10T07:45:03.063Z</time>
      </trkpt>
      <trkpt lat="43.70848" lon="4.01576">
        <ele>58.04</ele>
        <time>2025-10-10T07:45:08.206Z</time>
      </trkpt>
      <trkpt lat="43.70851" lon="4.01582">
        <ele>55.78</ele>
        <time>2025-10-10T07:45:13.221Z</time>
      </trkpt>
      <trkpt lat="43.70856" lon="4.0159">
        <ele>54.96</ele>
        <time>2025-10-10T07:45:18.921Z</time>
      </trkpt>
      <trkpt lat="43.7086" lon="4.01597">
        <ele>54.47</ele>
        <time>2025-10-10T07:45:23.980Z</time>
      </trkpt>
      <trkpt lat="43.70865" lon="4.01602">
        <ele>53.55</ele>
        <time>2025-10-10T07:45:29.100Z</time>
      </trkpt>
      <trkpt lat="43.70867" lon="4.01608">
        <ele>54.01</ele>
        <time>2025-10-10T07:45:34.385Z</time>
      </trkpt>
      <trkpt lat="43.70867" lon="4.01617">
        <ele>55.38</ele>
        <time>2025-10-10T07:45:40.102Z</time>
      </trkpt>
      <trkpt lat="43.70866" lon="4.01625">
        <ele>54.08</ele>
        <time>2025-10-10T07:45:45.641Z</time>
      </trkpt>
      <trkpt lat="43.70866" lon="4.01634">
        <ele>50.98</ele>
        <time>2025-10-10T07:45:50.800Z</time>
      </trkpt>
      <trkpt lat="43.70872" lon="4.01636">
        <ele>50.48</ele>
        <time>2025-10-10T07:45:56.099Z</time>
      </trkpt>
      <trkpt lat="43.70878" lon="4.01633">
        <ele>54.49</ele>
        <time>2025-10-10T07:46:01.114Z</time>
      </trkpt>
      <trkpt lat="43.70884" lon="4.01634">
        <ele>56.83</ele>
        <time>2025-10-10T07:46:06.366Z</time>
      </trkpt>
      <trkpt lat="43.7089" lon="4.01636">
        <ele>58.13</ele>
        <time>2025-10-10T07:46:11.675Z</time>
      </trkpt>
      <trkpt lat="43.70895" lon="4.0164">
        <ele>56.69</ele>
        <time>2025-10-10T07:46:16.688Z</time>
      </trkpt>
      <trkpt lat="43.709" lon="4.01644">
        <ele>55.39</ele>
        <time>2025-10-10T07:46:21.987Z</time>
      </trkpt>
      <trkpt lat="43.70904" lon="4.0165">
        <ele>56.41</ele>
        <time>2025-10-10T07:46:27.751Z</time>
      </trkpt>
      <trkpt lat="43.7091" lon="4.01654">
        <ele>56.74</ele>
        <time>2025-10-10T07:46:33.815Z</time>
      </trkpt>
      <trkpt lat="43.70915" lon="4.01657">
        <ele>57.51</ele>
        <time>2025-10-10T07:46:39.103Z</time>
      </trkpt>
      <trkpt lat="43.70922" lon="4.01658">
        <ele>57.83</ele>
        <time>2025-10-10T07:46:44.129Z</time>
      </trkpt>
      <trkpt lat="43.70927" lon="4.01656">
        <ele>57.79</ele>
        <time>2025-10-10T07:46:49.703Z</time>
      </trkpt>
      <trkpt lat="43.70931" lon="4.01652">
        <ele>57.44</ele>
        <time>2025-10-10T07:46:54.935Z</time>
      </trkpt>
      <trkpt lat="43.70935" lon="4.01653">
        <ele>58.2</ele>
        <time>2025-10-10T07:47:00.124Z</time>
      </trkpt>
      <trkpt lat="43.70941" lon="4.01656">
        <ele>58.53</ele>
        <time>2025-10-10T07:47:05.139Z</time>
      </trkpt>
      <trkpt lat="43.70948" lon="4.0166">
        <ele>58.97</ele>
        <time>2025-10-10T07:47:10.415Z</time>
      </trkpt>
      <trkpt lat="43.70954" lon="4.01665">
        <ele>59.83</ele>
        <time>2025-10-10T07:47:15.815Z</time>
      </trkpt>
      <trkpt lat="43.7096" lon="4.01668">
        <ele>59.9</ele>
        <time>2025-10-10T07:47:21.192Z</time>
      </trkpt>
      <trkpt lat="43.70966" lon="4.01669">
        <ele>60.45</ele>
        <time>2025-10-10T07:47:26.723Z</time>
      </trkpt>
      <trkpt lat="43.70972" lon="4.0167">
        <ele>60.59</ele>
        <time>2025-10-10T07:47:31.730Z</time>
      </trkpt>
      <trkpt lat="43.70978" lon="4.01673">
        <ele>61.52</ele>
        <time>2025-10-10T07:47:36.836Z</time>
      </trkpt>
      <trkpt lat="43.70983" lon="4.01678">
        <ele>60.86</ele>
        <time>2025-10-10T07:47:42.089Z</time>
      </trkpt>
      <trkpt lat="43.70989" lon="4.01685">
        <ele>60.73</ele>
        <time>2025-10-10T07:47:47.192Z</time>
      </trkpt>
      <trkpt lat="43.70995" lon="4.01691">
        <ele>60.19</ele>
        <time>2025-10-10T07:47:52.207Z</time>
      </trkpt>
      <trkpt lat="43.71001" lon="4.01693">
        <ele>61.35</ele>
        <time>2025-10-10T07:47:57.537Z</time>
      </trkpt>
      <trkpt lat="43.71007" lon="4.01696">
        <ele>61.91</ele>
        <time>2025-10-10T07:48:02.935Z</time>
      </trkpt>
      <trkpt lat="43.71012" lon="4.01701">
        <ele>62.21</ele>
        <time>2025-10-10T07:48:08.589Z</time>
      </trkpt>
      <trkpt lat="43.71016" lon="4.01707">
        <ele>62.72</ele>
        <time>2025-10-10T07:48:13.711Z</time>
      </trkpt>
      <trkpt lat="43.71022" lon="4.01713">
        <ele>61.99</ele>
        <time>2025-10-10T07:48:18.931Z</time>
      </trkpt>
      <trkpt lat="43.71028" lon="4.01714">
        <ele>61.77</ele>
        <time>2025-10-10T07:48:24.194Z</time>
      </trkpt>
      <trkpt lat="43.71034" lon="4.01714">
        <ele>61.83</ele>
        <time>2025-10-10T07:48:29.708Z</time>
      </trkpt>
      <trkpt lat="43.71039" lon="4.01714">
        <ele>63.07</ele>
        <time>2025-10-10T07:48:34.709Z</time>
      </trkpt>
      <trkpt lat="43.71045" lon="4.01713">
        <ele>63.25</ele>
        <time>2025-10-10T07:48:39.729Z</time>
      </trkpt>
      <trkpt lat="43.7105" lon="4.01712">
        <ele>64.22</ele>
        <time>2025-10-10T07:48:44.789Z</time>
      </trkpt>
      <trkpt lat="43.71056" lon="4.0171">
        <ele>64.4</ele>
        <time>2025-10-10T07:48:50.239Z</time>
      </trkpt>
      <trkpt lat="43.71061" lon="4.01713">
        <ele>64.49</ele>
        <time>2025-10-10T07:48:55.709Z</time>
      </trkpt>
      <trkpt lat="43.71067" lon="4.01715">
        <ele>65.08</ele>
        <time>2025-10-10T07:49:00.767Z</time>
      </trkpt>
      <trkpt lat="43.71074" lon="4.01718">
        <ele>65.57</ele>
        <time>2025-10-10T07:49:06.076Z</time>
      </trkpt>
      <trkpt lat="43.7108" lon="4.0172">
        <ele>65.73</ele>
        <time>2025-10-10T07:49:11.158Z</time>
      </trkpt>
      <trkpt lat="43.71087" lon="4.0172">
        <ele>65.25</ele>
        <time>2025-10-10T07:49:16.597Z</time>
      </trkpt>
      <trkpt lat="43.71093" lon="4.01717">
        <ele>65.15</ele>
        <time>2025-10-10T07:49:21.975Z</time>
      </trkpt>
      <trkpt lat="43.71097" lon="4.01715">
        <ele>65.58</ele>
        <time>2025-10-10T07:49:27.008Z</time>
      </trkpt>
      <trkpt lat="43.71102" lon="4.01712">
        <ele>66.46</ele>
        <time>2025-10-10T07:49:32.114Z</time>
      </trkpt>
      <trkpt lat="43.71108" lon="4.0171">
        <ele>66.24</ele>
        <time>2025-10-10T07:49:37.700Z</time>
      </trkpt>
      <trkpt lat="43.71115" lon="4.01709">
        <ele>67.26</ele>
        <time>2025-10-10T07:49:43.179Z</time>
      </trkpt>
      <trkpt lat="43.7112" lon="4.01706">
        <ele>67.52</ele>
        <time>2025-10-10T07:49:48.625Z</time>
      </trkpt>
      <trkpt lat="43.71126" lon="4.01702">
        <ele>67.83</ele>
        <time>2025-10-10T07:49:54.243Z</time>
      </trkpt>
      <trkpt lat="43.71132" lon="4.01697">
        <ele>69.24</ele>
        <time>2025-10-10T07:50:00.120Z</time>
      </trkpt>
      <trkpt lat="43.71136" lon="4.01691">
        <ele>68.77</ele>
        <time>2025-10-10T07:50:05.169Z</time>
      </trkpt>
      <trkpt lat="43.7114" lon="4.01687">
        <ele>70.09</ele>
        <time>2025-10-10T07:50:10.828Z</time>
      </trkpt>
      <trkpt lat="43.71145" lon="4.01685">
        <ele>71.04</ele>
        <time>2025-10-10T07:50:16.144Z</time>
      </trkpt>
      <trkpt lat="43.71149" lon="4.01685">
        <ele>71.04</ele>
        <time>2025-10-10T07:50:21.174Z</time>
      </trkpt>
      <trkpt lat="43.71155" lon="4.01686">
        <ele>71.73</ele>
        <time>2025-10-10T07:50:26.602Z</time>
      </trkpt>
      <trkpt lat="43.7116" lon="4.01688">
        <ele>72.04</ele>
        <time>2025-10-10T07:50:31.805Z</time>
      </trkpt>
      <trkpt lat="43.71165" lon="4.01693">
        <ele>71.59</ele>
        <time>2025-10-10T07:50:36.884Z</time>
      </trkpt>
      <trkpt lat="43.7117" lon="4.01697">
        <ele>71.66</ele>
        <time>2025-10-10T07:50:42.195Z</time>
      </trkpt>
      <trkpt lat="43.71176" lon="4.01696">
        <ele>71.22</ele>
        <time>2025-10-10T07:50:47.409Z</time>
      </trkpt>
      <trkpt lat="43.71181" lon="4.01694">
        <ele>70.88</ele>
        <time>2025-10-10T07:50:52.485Z</time>
      </trkpt>
      <trkpt lat="43.71189" lon="4.01694">
        <ele>72.85</ele>
        <time>2025-10-10T07:50:57.947Z</time>
      </trkpt>
      <trkpt lat="43.71194" lon="4.01694">
        <ele>73.92</ele>
        <time>2025-10-10T07:51:03.002Z</time>
      </trkpt>
      <trkpt lat="43.71201" lon="4.01693">
        <ele>73.09</ele>
        <time>2025-10-10T07:51:08.830Z</time>
      </trkpt>
      <trkpt lat="43.71208" lon="4.01691">
        <ele>72.98</ele>
        <time>2025-10-10T07:51:14.108Z</time>
      </trkpt>
      <trkpt lat="43.71214" lon="4.01688">
        <ele>72.64</ele>
        <time>2025-10-10T07:51:19.206Z</time>
      </trkpt>
      <trkpt lat="43.71221" lon="4.01691">
        <ele>72.99</ele>
        <time>2025-10-10T07:51:24.492Z</time>
      </trkpt>
      <trkpt lat="43.71228" lon="4.01692">
        <ele>73.29</ele>
        <time>2025-10-10T07:51:29.710Z</time>
      </trkpt>
      <trkpt lat="43.71233" lon="4.01689">
        <ele>73.23</ele>
        <time>2025-10-10T07:51:35.030Z</time>
      </trkpt>
      <trkpt lat="43.71237" lon="4.0169">
        <ele>70.92</ele>
        <time>2025-10-10T07:51:40.151Z</time>
      </trkpt>
      <trkpt lat="43.71236" lon="4.0169">
        <ele>75.7</ele>
        <time>2025-10-10T07:51:45.167Z</time>
      </trkpt>
      <trkpt lat="43.71236" lon="4.01688">
        <ele>73.7</ele>
        <time>2025-10-10T07:51:50.182Z</time>
      </trkpt>
      <trkpt lat="43.71236" lon="4.01687">
        <ele>73.11</ele>
        <time>2025-10-10T07:51:57.118Z</time>
      </trkpt>
      <trkpt lat="43.71235" lon="4.01686">
        <ele>72.86</ele>
        <time>2025-10-10T07:53:10.134Z</time>
      </trkpt>
      <trkpt lat="43.71236" lon="4.01684">
        <ele>72.32</ele>
        <time>2025-10-10T07:53:15.831Z</time>
      </trkpt>
      <trkpt lat="43.71236" lon="4.0168">
        <ele>70.82</ele>
        <time>2025-10-10T07:53:21.132Z</time>
      </trkpt>
      <trkpt lat="43.7124" lon="4.01671">
        <ele>69.94</ele>
        <time>2025-10-10T07:53:26.789Z</time>
      </trkpt>
      <trkpt lat="43.71242" lon="4.01661">
        <ele>71.03</ele>
        <time>2025-10-10T07:53:32.102Z</time>
      </trkpt>
      <trkpt lat="43.71246" lon="4.01652">
        <ele>71.54</ele>
        <time>2025-10-10T07:53:37.928Z</time>
      </trkpt>
      <trkpt lat="43.71248" lon="4.01644">
        <ele>71.74</ele>
        <time>2025-10-10T07:53:43.726Z</time>
      </trkpt>
      <trkpt lat="43.7125" lon="4.01635">
        <ele>74.07</ele>
        <time>2025-10-10T07:53:49.068Z</time>
      </trkpt>
      <trkpt lat="43.71252" lon="4.01626">
        <ele>74.03</ele>
        <time>2025-10-10T07:53:54.149Z</time>
      </trkpt>
      <trkpt lat="43.71253" lon="4.01616">
        <ele>73.93</ele>
        <time>2025-10-10T07:53:59.367Z</time>
      </trkpt>
      <trkpt lat="43.71253" lon="4.01606">
        <ele>72.66</ele>
        <time>2025-10-10T07:54:04.459Z</time>
      </trkpt>
      <trkpt lat="43.71252" lon="4.01596">
        <ele>71.98</ele>
        <time>2025-10-10T07:54:09.612Z</time>
      </trkpt>
      <trkpt lat="43.71253" lon="4.01588">
        <ele>70.53</ele>
        <time>2025-10-10T07:54:15.105Z</time>
      </trkpt>
      <trkpt lat="43.71255" lon="4.0158">
        <ele>73.42</ele>
        <time>2025-10-10T07:54:20.291Z</time>
      </trkpt>
      <trkpt lat="43.71257" lon="4.01572">
        <ele>75.72</ele>
        <time>2025-10-10T07:54:25.372Z</time>
      </trkpt>
      <trkpt lat="43.71261" lon="4.01563">
        <ele>73.91</ele>
        <time>2025-10-10T07:54:30.427Z</time>
      </trkpt>
      <trkpt lat="43.71266" lon="4.01559">
        <ele>69.11</ele>
        <time>2025-10-10T07:54:36.125Z</time>
      </trkpt>
      <trkpt lat="43.7127" lon="4.01561">
        <ele>70.27</ele>
        <time>2025-10-10T07:54:41.151Z</time>
      </trkpt>
      <trkpt lat="43.71275" lon="4.01562">
        <ele>72.88</ele>
        <time>2025-10-10T07:54:46.727Z</time>
      </trkpt>
      <trkpt lat="43.7128" lon="4.01567">
        <ele>74.84</ele>
        <time>2025-10-10T07:54:52.231Z</time>
      </trkpt>
      <trkpt lat="43.71284" lon="4.01576">
        <ele>74.82</ele>
        <time>2025-10-10T07:54:58.107Z</time>
      </trkpt>
      <trkpt lat="43.71289" lon="4.0158">
        <ele>75.67</ele>
        <time>2025-10-10T07:55:03.470Z</time>
      </trkpt>
      <trkpt lat="43.71292" lon="4.01585">
        <ele>75.39</ele>
        <time>2025-10-10T07:55:08.910Z</time>
      </trkpt>
      <trkpt lat="43.71296" lon="4.01588">
        <ele>74.9</ele>
        <time>2025-10-10T07:55:13.984Z</time>
      </trkpt>
      <trkpt lat="43.71302" lon="4.01591">
        <ele>78.12</ele>
        <time>2025-10-10T07:55:19.087Z</time>
      </trkpt>
      <trkpt lat="43.71309" lon="4.01591">
        <ele>77.42</ele>
        <time>2025-10-10T07:55:24.466Z</time>
      </trkpt>
      <trkpt lat="43.71316" lon="4.01592">
        <ele>77.63</ele>
        <time>2025-10-10T07:55:30.183Z</time>
      </trkpt>
      <trkpt lat="43.71322" lon="4.01596">
        <ele>77.37</ele>
        <time>2025-10-10T07:55:36.201Z</time>
      </trkpt>
      <trkpt lat="43.71325" lon="4.01602">
        <ele>77.38</ele>
        <time>2025-10-10T07:55:41.844Z</time>
      </trkpt>
      <trkpt lat="43.71331" lon="4.01606">
        <ele>77.97</ele>
        <time>2025-10-10T07:55:47.445Z</time>
      </trkpt>
      <trkpt lat="43.71337" lon="4.01603">
        <ele>78</ele>
        <time>2025-10-10T07:55:53.142Z</time>
      </trkpt>
      <trkpt lat="43.71341" lon="4.01602">
        <ele>77.97</ele>
        <time>2025-10-10T07:55:58.203Z</time>
      </trkpt>
      <trkpt lat="43.71348" lon="4.01605">
        <ele>77.38</ele>
        <time>2025-10-10T07:56:04.109Z</time>
      </trkpt>
      <trkpt lat="43.71355" lon="4.01607">
        <ele>77.07</ele>
        <time>2025-10-10T07:56:09.173Z</time>
      </trkpt>
      <trkpt lat="43.71359" lon="4.01603">
        <ele>76.92</ele>
        <time>2025-10-10T07:56:14.188Z</time>
      </trkpt>
      <trkpt lat="43.71364" lon="4.01606">
        <ele>76.58</ele>
        <time>2025-10-10T07:56:19.990Z</time>
      </trkpt>
      <trkpt lat="43.71369" lon="4.01609">
        <ele>76.65</ele>
        <time>2025-10-10T07:56:25.047Z</time>
      </trkpt>
      <trkpt lat="43.71373" lon="4.01612">
        <ele>76.8</ele>
        <time>2025-10-10T07:56:30.305Z</time>
      </trkpt>
      <trkpt lat="43.71378" lon="4.01616">
        <ele>76.18</ele>
        <time>2025-10-10T07:56:36.178Z</time>
      </trkpt>
      <trkpt lat="43.71383" lon="4.0162">
        <ele>76.73</ele>
        <time>2025-10-10T07:56:41.726Z</time>
      </trkpt>
      <trkpt lat="43.7139" lon="4.0162">
        <ele>77.17</ele>
        <time>2025-10-10T07:56:47.029Z</time>
      </trkpt>
      <trkpt lat="43.71395" lon="4.01621">
        <ele>76.75</ele>
        <time>2025-10-10T07:56:52.183Z</time>
      </trkpt>
      <trkpt lat="43.714" lon="4.01627">
        <ele>76.71</ele>
        <time>2025-10-10T07:56:58.159Z</time>
      </trkpt>
      <trkpt lat="43.71398" lon="4.01635">
        <ele>76.64</ele>
        <time>2025-10-10T07:57:03.611Z</time>
      </trkpt>
      <trkpt lat="43.71399" lon="4.01642">
        <ele>77.46</ele>
        <time>2025-10-10T07:57:09.043Z</time>
      </trkpt>
      <trkpt lat="43.71401" lon="4.01641">
        <ele>77.21</ele>
        <time>2025-10-10T07:57:14.058Z</time>
      </trkpt>
      <trkpt lat="43.71405" lon="4.01643">
        <ele>75.76</ele>
        <time>2025-10-10T07:57:19.129Z</time>
      </trkpt>
      <trkpt lat="43.7141" lon="4.01647">
        <ele>73.87</ele>
        <time>2025-10-10T07:57:25.087Z</time>
      </trkpt>
      <trkpt lat="43.71414" lon="4.01651">
        <ele>76.93</ele>
        <time>2025-10-10T07:57:31.130Z</time>
      </trkpt>
      <trkpt lat="43.71419" lon="4.01654">
        <ele>78.74</ele>
        <time>2025-10-10T07:57:37.106Z</time>
      </trkpt>
      <trkpt lat="43.71422" lon="4.01661">
        <ele>77.46</ele>
        <time>2025-10-10T07:57:42.390Z</time>
      </trkpt>
      <trkpt lat="43.71427" lon="4.01666">
        <ele>75.97</ele>
        <time>2025-10-10T07:57:47.682Z</time>
      </trkpt>
      <trkpt lat="43.71433" lon="4.01668">
        <ele>76.14</ele>
        <time>2025-10-10T07:57:52.991Z</time>
      </trkpt>
      <trkpt lat="43.71435" lon="4.01669">
        <ele>76.11</ele>
        <time>2025-10-10T07:57:58.127Z</time>
      </trkpt>
      <trkpt lat="43.71436" lon="4.01672">
        <ele>74.79</ele>
        <time>2025-10-10T07:58:03.142Z</time>
      </trkpt>
      <trkpt lat="43.71435" lon="4.01671">
        <ele>74.34</ele>
        <time>2025-10-10T07:58:08.157Z</time>
      </trkpt>
      <trkpt lat="43.71439" lon="4.01669">
        <ele>74.21</ele>
        <time>2025-10-10T07:58:14.132Z</time>
      </trkpt>
      <trkpt lat="43.7144" lon="4.01668">
        <ele>71.41</ele>
        <time>2025-10-10T07:58:20.109Z</time>
      </trkpt>
      <trkpt lat="43.71446" lon="4.01672">
        <ele>73.8</ele>
        <time>2025-10-10T07:58:25.544Z</time>
      </trkpt>
      <trkpt lat="43.7145" lon="4.01667">
        <ele>73.8</ele>
        <time>2025-10-10T07:58:30.808Z</time>
      </trkpt>
      <trkpt lat="43.71448" lon="4.01661">
        <ele>71.73</ele>
        <time>2025-10-10T07:58:35.867Z</time>
      </trkpt>
      <trkpt lat="43.71448" lon="4.01655">
        <ele>71.23</ele>
        <time>2025-10-10T07:58:41.026Z</time>
      </trkpt>
      <trkpt lat="43.71449" lon="4.01648">
        <ele>70.97</ele>
        <time>2025-10-10T07:58:46.449Z</time>
      </trkpt>
      <trkpt lat="43.71449" lon="4.01641">
        <ele>70.78</ele>
        <time>2025-10-10T07:58:51.545Z</time>
      </trkpt>
      <trkpt lat="43.71449" lon="4.01633">
        <ele>69.83</ele>
        <time>2025-10-10T07:58:57.084Z</time>
      </trkpt>
      <trkpt lat="43.71451" lon="4.01626">
        <ele>69.49</ele>
        <time>2025-10-10T07:59:02.190Z</time>
      </trkpt>
      <trkpt lat="43.71454" lon="4.0162">
        <ele>69.79</ele>
        <time>2025-10-10T07:59:07.585Z</time>
      </trkpt>
      <trkpt lat="43.71453" lon="4.01614">
        <ele>69.62</ele>
        <time>2025-10-10T07:59:12.805Z</time>
      </trkpt>
      <trkpt lat="43.71453" lon="4.01608">
        <ele>67.71</ele>
        <time>2025-10-10T07:59:17.945Z</time>
      </trkpt>
      <trkpt lat="43.7145" lon="4.01596">
        <ele>67.39</ele>
        <time>2025-10-10T07:59:23.547Z</time>
      </trkpt>
      <trkpt lat="43.71448" lon="4.01586">
        <ele>67.45</ele>
        <time>2025-10-10T07:59:29.147Z</time>
      </trkpt>
      <trkpt lat="43.71447" lon="4.0158">
        <ele>67.78</ele>
        <time>2025-10-10T07:59:34.162Z</time>
      </trkpt>
      <trkpt lat="43.71443" lon="4.01572">
        <ele>66.51</ele>
        <time>2025-10-10T07:59:39.844Z</time>
      </trkpt>
      <trkpt lat="43.71441" lon="4.01562">
        <ele>66.51</ele>
        <time>2025-10-10T07:59:45.057Z</time>
      </trkpt>
      <trkpt lat="43.71439" lon="4.01555">
        <ele>66.04</ele>
        <time>2025-10-10T07:59:50.740Z</time>
      </trkpt>
      <trkpt lat="43.71437" lon="4.01548">
        <ele>65.71</ele>
        <time>2025-10-10T07:59:56.143Z</time>
      </trkpt>
      <trkpt lat="43.71435" lon="4.01538">
        <ele>65.2</ele>
        <time>2025-10-10T08:00:01.158Z</time>
      </trkpt>
      <trkpt lat="43.71431" lon="4.01537">
        <ele>65.3</ele>
        <time>2025-10-10T08:00:06.527Z</time>
      </trkpt>
      <trkpt lat="43.71424" lon="4.01536">
        <ele>65.53</ele>
        <time>2025-10-10T08:00:12.149Z</time>
      </trkpt>
      <trkpt lat="43.71419" lon="4.01529">
        <ele>65.88</ele>
        <time>2025-10-10T08:00:18.124Z</time>
      </trkpt>
      <trkpt lat="43.71414" lon="4.01525">
        <ele>65.42</ele>
        <time>2025-10-10T08:00:23.320Z</time>
      </trkpt>
      <trkpt lat="43.7141" lon="4.01519">
        <ele>64.65</ele>
        <time>2025-10-10T08:00:28.622Z</time>
      </trkpt>
      <trkpt lat="43.71409" lon="4.01511">
        <ele>64.17</ele>
        <time>2025-10-10T08:00:34.130Z</time>
      </trkpt>
      <trkpt lat="43.71411" lon="4.01501">
        <ele>63.36</ele>
        <time>2025-10-10T08:00:39.465Z</time>
      </trkpt>
      <trkpt lat="43.71413" lon="4.01488">
        <ele>62.89</ele>
        <time>2025-10-10T08:00:44.721Z</time>
      </trkpt>
      <trkpt lat="43.71416" lon="4.01479">
        <ele>62.59</ele>
        <time>2025-10-10T08:00:50.441Z</time>
      </trkpt>
      <trkpt lat="43.71415" lon="4.01471">
        <ele>61.6</ele>
        <time>2025-10-10T08:00:56.110Z</time>
      </trkpt>
      <trkpt lat="43.71414" lon="4.01463">
        <ele>61.51</ele>
        <time>2025-10-10T08:01:01.563Z</time>
      </trkpt>
      <trkpt lat="43.71413" lon="4.01456">
        <ele>61.55</ele>
        <time>2025-10-10T08:01:06.731Z</time>
      </trkpt>
      <trkpt lat="43.71414" lon="4.01447">
        <ele>61.09</ele>
        <time>2025-10-10T08:01:12.888Z</time>
      </trkpt>
      <trkpt lat="43.71415" lon="4.0144">
        <ele>60.42</ele>
        <time>2025-10-10T08:01:17.926Z</time>
      </trkpt>
      <trkpt lat="43.71415" lon="4.01432">
        <ele>59.58</ele>
        <time>2025-10-10T08:01:23.106Z</time>
      </trkpt>
      <trkpt lat="43.71412" lon="4.01424">
        <ele>58.85</ele>
        <time>2025-10-10T08:01:28.221Z</time>
      </trkpt>
      <trkpt lat="43.71411" lon="4.01416">
        <ele>58.62</ele>
        <time>2025-10-10T08:01:34.203Z</time>
      </trkpt>
      <trkpt lat="43.71411" lon="4.01408">
        <ele>58.61</ele>
        <time>2025-10-10T08:01:40.040Z</time>
      </trkpt>
      <trkpt lat="43.71409" lon="4.01401">
        <ele>58.55</ele>
        <time>2025-10-10T08:01:45.193Z</time>
      </trkpt>
      <trkpt lat="43.71412" lon="4.01397">
        <ele>58.02</ele>
        <time>2025-10-10T08:01:50.955Z</time>
      </trkpt>
      <trkpt lat="43.71416" lon="4.01397">
        <ele>58.05</ele>
        <time>2025-10-10T08:01:56.016Z</time>
      </trkpt>
      <trkpt lat="43.71422" lon="4.01399">
        <ele>58.35</ele>
        <time>2025-10-10T08:02:01.102Z</time>
      </trkpt>
      <trkpt lat="43.71428" lon="4.01399">
        <ele>58.36</ele>
        <time>2025-10-10T08:02:06.107Z</time>
      </trkpt>
      <trkpt lat="43.71433" lon="4.01399">
        <ele>58.49</ele>
        <time>2025-10-10T08:02:11.124Z</time>
      </trkpt>
      <trkpt lat="43.71439" lon="4.01401">
        <ele>59.47</ele>
        <time>2025-10-10T08:02:16.136Z</time>
      </trkpt>
      <trkpt lat="43.71445" lon="4.01402">
        <ele>59.39</ele>
        <time>2025-10-10T08:02:21.709Z</time>
      </trkpt>
      <trkpt lat="43.71452" lon="4.01403">
        <ele>59.73</ele>
        <time>2025-10-10T08:02:27.084Z</time>
      </trkpt>
      <trkpt lat="43.71458" lon="4.01404">
        <ele>60.34</ele>
        <time>2025-10-10T08:02:32.422Z</time>
      </trkpt>
      <trkpt lat="43.71464" lon="4.01405">
        <ele>60.66</ele>
        <time>2025-10-10T08:02:37.880Z</time>
      </trkpt>
      <trkpt lat="43.7147" lon="4.01408">
        <ele>61.79</ele>
        <time>2025-10-10T08:02:43.839Z</time>
      </trkpt>
      <trkpt lat="43.71476" lon="4.01412">
        <ele>61.53</ele>
        <time>2025-10-10T08:02:49.136Z</time>
      </trkpt>
      <trkpt lat="43.71482" lon="4.01415">
        <ele>61.11</ele>
        <time>2025-10-10T08:02:54.257Z</time>
      </trkpt>
      <trkpt lat="43.71488" lon="4.01414">
        <ele>61.89</ele>
        <time>2025-10-10T08:02:59.676Z</time>
      </trkpt>
      <trkpt lat="43.71488" lon="4.01405">
        <ele>61.51</ele>
        <time>2025-10-10T08:03:05.221Z</time>
      </trkpt>
      <trkpt lat="43.71485" lon="4.01398">
        <ele>60.53</ele>
        <time>2025-10-10T08:03:10.711Z</time>
      </trkpt>
      <trkpt lat="43.7148" lon="4.01395">
        <ele>58.65</ele>
        <time>2025-10-10T08:03:16.428Z</time>
      </trkpt>
      <trkpt lat="43.71474" lon="4.01392">
        <ele>58.08</ele>
        <time>2025-10-10T08:03:22.099Z</time>
      </trkpt>
      <trkpt lat="43.71471" lon="4.01385">
        <ele>57.96</ele>
        <time>2025-10-10T08:03:27.238Z</time>
      </trkpt>
      <trkpt lat="43.71468" lon="4.01377">
        <ele>57.62</ele>
        <time>2025-10-10T08:03:32.719Z</time>
      </trkpt>
      <trkpt lat="43.71462" lon="4.01376">
        <ele>57.46</ele>
        <time>2025-10-10T08:03:38.189Z</time>
      </trkpt>
      <trkpt lat="43.71454" lon="4.01374">
        <ele>57.27</ele>
        <time>2025-10-10T08:03:44.164Z</time>
      </trkpt>
      <trkpt lat="43.71447" lon="4.01371">
        <ele>57.4</ele>
        <time>2025-10-10T08:03:50.003Z</time>
      </trkpt>
      <trkpt lat="43.7144" lon="4.01371">
        <ele>57.05</ele>
        <time>2025-10-10T08:03:55.556Z</time>
      </trkpt>
      <trkpt lat="43.71434" lon="4.0137">
        <ele>56.4</ele>
        <time>2025-10-10T08:04:01.129Z</time>
      </trkpt>
      <trkpt lat="43.71426" lon="4.01366">
        <ele>56.48</ele>
        <time>2025-10-10T08:04:06.859Z</time>
      </trkpt>
      <trkpt lat="43.7142" lon="4.01364">
        <ele>56.8</ele>
        <time>2025-10-10T08:04:12.119Z</time>
      </trkpt>
      <trkpt lat="43.71415" lon="4.01361">
        <ele>56.1</ele>
        <time>2025-10-10T08:04:17.442Z</time>
      </trkpt>
      <trkpt lat="43.71412" lon="4.01353">
        <ele>55.4</ele>
        <time>2025-10-10T08:04:22.602Z</time>
      </trkpt>
      <trkpt lat="43.71407" lon="4.01351">
        <ele>55.47</ele>
        <time>2025-10-10T08:04:27.699Z</time>
      </trkpt>
      <trkpt lat="43.71402" lon="4.01349">
        <ele>54.41</ele>
        <time>2025-10-10T08:04:32.926Z</time>
      </trkpt>
      <trkpt lat="43.71396" lon="4.0135">
        <ele>52.9</ele>
        <time>2025-10-10T08:04:38.163Z</time>
      </trkpt>
      <trkpt lat="43.71392" lon="4.01343">
        <ele>52.49</ele>
        <time>2025-10-10T08:04:44.097Z</time>
      </trkpt>
      <trkpt lat="43.7139" lon="4.01338">
        <ele>52.41</ele>
        <time>2025-10-10T08:04:49.858Z</time>
      </trkpt>
      <trkpt lat="43.71393" lon="4.01328">
        <ele>51.89</ele>
        <time>2025-10-10T08:04:55.443Z</time>
      </trkpt>
      <trkpt lat="43.7139" lon="4.01314">
        <ele>53.47</ele>
        <time>2025-10-10T08:05:01.221Z</time>
      </trkpt>
      <trkpt lat="43.71391" lon="4.01302">
        <ele>54.02</ele>
        <time>2025-10-10T08:05:06.728Z</time>
      </trkpt>
      <trkpt lat="43.71392" lon="4.01292">
        <ele>53.93</ele>
        <time>2025-10-10T08:05:13.160Z</time>
      </trkpt>
      <trkpt lat="43.71395" lon="4.01287">
        <ele>51.58</ele>
        <time>2025-10-10T08:05:19.135Z</time>
      </trkpt>
      <trkpt lat="43.71399" lon="4.01282">
        <ele>49.3</ele>
        <time>2025-10-10T08:05:25.111Z</time>
      </trkpt>
      <trkpt lat="43.71404" lon="4.0128">
        <ele>54.12</ele>
        <time>2025-10-10T08:05:31.193Z</time>
      </trkpt>
      <trkpt lat="43.71409" lon="4.01278">
        <ele>53.11</ele>
        <time>2025-10-10T08:05:37.178Z</time>
      </trkpt>
      <trkpt lat="43.71414" lon="4.01276">
        <ele>52.61</ele>
        <time>2025-10-10T08:05:42.818Z</time>
      </trkpt>
      <trkpt lat="43.71416" lon="4.01269">
        <ele>55.03</ele>
        <time>2025-10-10T08:05:48.158Z</time>
      </trkpt>
      <trkpt lat="43.71422" lon="4.01264">
        <ele>55.42</ele>
        <time>2025-10-10T08:05:53.798Z</time>
      </trkpt>
      <trkpt lat="43.71426" lon="4.0126">
        <ele>54.85</ele>
        <time>2025-10-10T08:05:59.149Z</time>
      </trkpt>
      <trkpt lat="43.71431" lon="4.01257">
        <ele>55.31</ele>
        <time>2025-10-10T08:06:04.174Z</time>
      </trkpt>
      <trkpt lat="43.71435" lon="4.01252">
        <ele>55.85</ele>
        <time>2025-10-10T08:06:09.713Z</time>
      </trkpt>
      <trkpt lat="43.71438" lon="4.01247">
        <ele>55.99</ele>
        <time>2025-10-10T08:06:15.154Z</time>
      </trkpt>
      <trkpt lat="43.71437" lon="4.01249">
        <ele>56.61</ele>
        <time>2025-10-10T08:06:21.130Z</time>
      </trkpt>
      <trkpt lat="43.71437" lon="4.01247">
        <ele>56.13</ele>
        <time>2025-10-10T08:06:46.992Z</time>
      </trkpt>
      <trkpt lat="43.71439" lon="4.01243">
        <ele>56.1</ele>
        <time>2025-10-10T08:06:51.992Z</time>
      </trkpt>
      <trkpt lat="43.71441" lon="4.01242">
        <ele>56.07</ele>
        <time>2025-10-10T08:06:57.206Z</time>
      </trkpt>
      <trkpt lat="43.71448" lon="4.01239">
        <ele>55.42</ele>
        <time>2025-10-10T08:07:02.765Z</time>
      </trkpt>
      <trkpt lat="43.71451" lon="4.01234">
        <ele>56.68</ele>
        <time>2025-10-10T08:07:07.932Z</time>
      </trkpt>
      <trkpt lat="43.71453" lon="4.01226">
        <ele>58.47</ele>
        <time>2025-10-10T08:07:13.166Z</time>
      </trkpt>
      <trkpt lat="43.71458" lon="4.01223">
        <ele>58.77</ele>
        <time>2025-10-10T08:07:18.608Z</time>
      </trkpt>
      <trkpt lat="43.71463" lon="4.01224">
        <ele>59.43</ele>
        <time>2025-10-10T08:07:24.052Z</time>
      </trkpt>
      <trkpt lat="43.71469" lon="4.01224">
        <ele>59.11</ele>
        <time>2025-10-10T08:07:29.209Z</time>
      </trkpt>
      <trkpt lat="43.71476" lon="4.01225">
        <ele>59.47</ele>
        <time>2025-10-10T08:07:34.749Z</time>
      </trkpt>
      <trkpt lat="43.71486" lon="4.01225">
        <ele>58.75</ele>
        <time>2025-10-10T08:07:40.164Z</time>
      </trkpt>
      <trkpt lat="43.71493" lon="4.01225">
        <ele>59.89</ele>
        <time>2025-10-10T08:07:45.349Z</time>
      </trkpt>
      <trkpt lat="43.71497" lon="4.01231">
        <ele>60.82</ele>
        <time>2025-10-10T08:07:50.728Z</time>
      </trkpt>
      <trkpt lat="43.71505" lon="4.01233">
        <ele>61.35</ele>
        <time>2025-10-10T08:07:56.060Z</time>
      </trkpt>
      <trkpt lat="43.71511" lon="4.01235">
        <ele>62.78</ele>
        <time>2025-10-10T08:08:01.182Z</time>
      </trkpt>
      <trkpt lat="43.71518" lon="4.01237">
        <ele>62.37</ele>
        <time>2025-10-10T08:08:06.754Z</time>
      </trkpt>
      <trkpt lat="43.71524" lon="4.01235">
        <ele>62</ele>
        <time>2025-10-10T08:08:11.865Z</time>
      </trkpt>
      <trkpt lat="43.71525" lon="4.01231">
        <ele>61.56</ele>
        <time>2025-10-10T08:08:17.538Z</time>
      </trkpt>
      <trkpt lat="43.71524" lon="4.01236">
        <ele>62.33</ele>
        <time>2025-10-10T08:08:23.163Z</time>
      </trkpt>
      <trkpt lat="43.71524" lon="4.01235">
        <ele>61.23</ele>
        <time>2025-10-10T08:08:29.138Z</time>
      </trkpt>
      <trkpt lat="43.71526" lon="4.01235">
        <ele>60.36</ele>
        <time>2025-10-10T08:08:43.994Z</time>
      </trkpt>
      <trkpt lat="43.71525" lon="4.01236">
        <ele>61.39</ele>
        <time>2025-10-10T08:08:49.995Z</time>
      </trkpt>
      <trkpt lat="43.71524" lon="4.01236">
        <ele>60.74</ele>
        <time>2025-10-10T08:08:58.995Z</time>
      </trkpt>
      <trkpt lat="43.71524" lon="4.01235">
        <ele>60.85</ele>
        <time>2025-10-10T08:09:42.996Z</time>
      </trkpt>
      <trkpt lat="43.71526" lon="4.01235">
        <ele>63.21</ele>
        <time>2025-10-10T08:09:48.351Z</time>
      </trkpt>
      <trkpt lat="43.71524" lon="4.01242">
        <ele>61.83</ele>
        <time>2025-10-10T08:09:53.747Z</time>
      </trkpt>
      <trkpt lat="43.71521" lon="4.01245">
        <ele>61.98</ele>
        <time>2025-10-10T08:09:58.777Z</time>
      </trkpt>
      <trkpt lat="43.7152" lon="4.01244">
        <ele>62.62</ele>
        <time>2025-10-10T08:10:04.215Z</time>
      </trkpt>
      <trkpt lat="43.71523" lon="4.01249">
        <ele>62.07</ele>
        <time>2025-10-10T08:10:10.231Z</time>
      </trkpt>
      <trkpt lat="43.71528" lon="4.01252">
        <ele>61.14</ele>
        <time>2025-10-10T08:10:15.611Z</time>
      </trkpt>
      <trkpt lat="43.71534" lon="4.01256">
        <ele>61.01</ele>
        <time>2025-10-10T08:10:21.051Z</time>
      </trkpt>
      <trkpt lat="43.71561" lon="4.0125">
        <ele>63.37</ele>
        <time>2025-10-10T08:10:26.530Z</time>
      </trkpt>
      <trkpt lat="43.71575" lon="4.01247">
        <ele>63.13</ele>
        <time>2025-10-10T08:10:32.148Z</time>
      </trkpt>
      <trkpt lat="43.7158" lon="4.01246">
        <ele>64.24</ele>
        <time>2025-10-10T08:10:37.165Z</time>
      </trkpt>
      <trkpt lat="43.71587" lon="4.01248">
        <ele>65.88</ele>
        <time>2025-10-10T08:10:42.288Z</time>
      </trkpt>
      <trkpt lat="43.71593" lon="4.01252">
        <ele>65.1</ele>
        <time>2025-10-10T08:10:47.590Z</time>
      </trkpt>
      <trkpt lat="43.71599" lon="4.01253">
        <ele>64.05</ele>
        <time>2025-10-10T08:10:52.721Z</time>
      </trkpt>
      <trkpt lat="43.71605" lon="4.01255">
        <ele>67.05</ele>
        <time>2025-10-10T08:10:58.173Z</time>
      </trkpt>
      <trkpt lat="43.71611" lon="4.01256">
        <ele>66.15</ele>
        <time>2025-10-10T08:11:04.207Z</time>
      </trkpt>
      <trkpt lat="43.71617" lon="4.01255">
        <ele>66.84</ele>
        <time>2025-10-10T08:11:10.073Z</time>
      </trkpt>
      <trkpt lat="43.71619" lon="4.01259">
        <ele>67.62</ele>
        <time>2025-10-10T08:11:15.732Z</time>
      </trkpt>
      <trkpt lat="43.71625" lon="4.01263">
        <ele>66.41</ele>
        <time>2025-10-10T08:11:21.371Z</time>
      </trkpt>
      <trkpt lat="43.71631" lon="4.01262">
        <ele>66.87</ele>
        <time>2025-10-10T08:11:26.732Z</time>
      </trkpt>
      <trkpt lat="43.71636" lon="4.01259">
        <ele>68</ele>
        <time>2025-10-10T08:11:31.889Z</time>
      </trkpt>
      <trkpt lat="43.71641" lon="4.01259">
        <ele>67.57</ele>
        <time>2025-10-10T08:11:36.932Z</time>
      </trkpt>
      <trkpt lat="43.71646" lon="4.01257">
        <ele>68.82</ele>
        <time>2025-10-10T08:11:42.374Z</time>
      </trkpt>
      <trkpt lat="43.71651" lon="4.01256">
        <ele>68.17</ele>
        <time>2025-10-10T08:11:47.595Z</time>
      </trkpt>
      <trkpt lat="43.71655" lon="4.01256">
        <ele>68.41</ele>
        <time>2025-10-10T08:11:52.695Z</time>
      </trkpt>
      <trkpt lat="43.71662" lon="4.01256">
        <ele>69.22</ele>
        <time>2025-10-10T08:11:57.878Z</time>
      </trkpt>
      <trkpt lat="43.7167" lon="4.01255">
        <ele>69.52</ele>
        <time>2025-10-10T08:12:03.217Z</time>
      </trkpt>
      <trkpt lat="43.7168" lon="4.01255">
        <ele>70.2</ele>
        <time>2025-10-10T08:12:08.569Z</time>
      </trkpt>
      <trkpt lat="43.71685" lon="4.01253">
        <ele>71.77</ele>
        <time>2025-10-10T08:12:14.187Z</time>
      </trkpt>
      <trkpt lat="43.7169" lon="4.01255">
        <ele>71.11</ele>
        <time>2025-10-10T08:12:19.535Z</time>
      </trkpt>
      <trkpt lat="43.71693" lon="4.01259">
        <ele>71.12</ele>
        <time>2025-10-10T08:12:24.964Z</time>
      </trkpt>
      <trkpt lat="43.71701" lon="4.0126">
        <ele>71.24</ele>
        <time>2025-10-10T08:12:30.192Z</time>
      </trkpt>
      <trkpt lat="43.71707" lon="4.01258">
        <ele>73</ele>
        <time>2025-10-10T08:12:35.207Z</time>
      </trkpt>
      <trkpt lat="43.71713" lon="4.01257">
        <ele>74.5</ele>
        <time>2025-10-10T08:12:40.779Z</time>
      </trkpt>
      <trkpt lat="43.71718" lon="4.01259">
        <ele>74.05</ele>
        <time>2025-10-10T08:12:46.198Z</time>
      </trkpt>
      <trkpt lat="43.71723" lon="4.01264">
        <ele>73.78</ele>
        <time>2025-10-10T08:12:51.215Z</time>
      </trkpt>
      <trkpt lat="43.71729" lon="4.01268">
        <ele>74.78</ele>
        <time>2025-10-10T08:12:56.855Z</time>
      </trkpt>
      <trkpt lat="43.71734" lon="4.0127">
        <ele>74.82</ele>
        <time>2025-10-10T08:13:02.019Z</time>
      </trkpt>
      <trkpt lat="43.7174" lon="4.01274">
        <ele>75.71</ele>
        <time>2025-10-10T08:13:07.578Z</time>
      </trkpt>
      <trkpt lat="43.71745" lon="4.01274">
        <ele>76.22</ele>
        <time>2025-10-10T08:13:12.719Z</time>
      </trkpt>
      <trkpt lat="43.71751" lon="4.01271">
        <ele>76.21</ele>
        <time>2025-10-10T08:13:18.113Z</time>
      </trkpt>
      <trkpt lat="43.71754" lon="4.01272">
        <ele>75.91</ele>
        <time>2025-10-10T08:13:23.331Z</time>
      </trkpt>
      <trkpt lat="43.7176" lon="4.01266">
        <ele>75.36</ele>
        <time>2025-10-10T08:13:28.796Z</time>
      </trkpt>
      <trkpt lat="43.71766" lon="4.01265">
        <ele>75.32</ele>
        <time>2025-10-10T08:13:34.012Z</time>
      </trkpt>
      <trkpt lat="43.71773" lon="4.01266">
        <ele>76.55</ele>
        <time>2025-10-10T08:13:39.229Z</time>
      </trkpt>
      <trkpt lat="43.71779" lon="4.0127">
        <ele>74.91</ele>
        <time>2025-10-10T08:13:44.557Z</time>
      </trkpt>
      <trkpt lat="43.71784" lon="4.01269">
        <ele>73.32</ele>
        <time>2025-10-10T08:13:50.113Z</time>
      </trkpt>
      <trkpt lat="43.7179" lon="4.01268">
        <ele>75.51</ele>
        <time>2025-10-10T08:13:55.554Z</time>
      </trkpt>
      <trkpt lat="43.71794" lon="4.01262">
        <ele>76.73</ele>
        <time>2025-10-10T08:14:01.103Z</time>
      </trkpt>
      <trkpt lat="43.71799" lon="4.01259">
        <ele>76.85</ele>
        <time>2025-10-10T08:14:06.118Z</time>
      </trkpt>
      <trkpt lat="43.71805" lon="4.01257">
        <ele>77.28</ele>
        <time>2025-10-10T08:14:11.134Z</time>
      </trkpt>
      <trkpt lat="43.7181" lon="4.01255">
        <ele>78.93</ele>
        <time>2025-10-10T08:14:16.149Z</time>
      </trkpt>
      <trkpt lat="43.71814" lon="4.01259">
        <ele>78.22</ele>
        <time>2025-10-10T08:14:21.164Z</time>
      </trkpt>
      <trkpt lat="43.7182" lon="4.01264">
        <ele>77.39</ele>
        <time>2025-10-10T08:14:26.840Z</time>
      </trkpt>
      <trkpt lat="43.71827" lon="4.01264">
        <ele>77.16</ele>
        <time>2025-10-10T08:14:32.155Z</time>
      </trkpt>
      <trkpt lat="43.71832" lon="4.01265">
        <ele>80.88</ele>
        <time>2025-10-10T08:14:37.170Z</time>
      </trkpt>
      <trkpt lat="43.71837" lon="4.01264">
        <ele>80.84</ele>
        <time>2025-10-10T08:14:42.464Z</time>
      </trkpt>
      <trkpt lat="43.71842" lon="4.01266">
        <ele>81.78</ele>
        <time>2025-10-10T08:14:47.728Z</time>
      </trkpt>
      <trkpt lat="43.71848" lon="4.01268">
        <ele>82.53</ele>
        <time>2025-10-10T08:14:53.176Z</time>
      </trkpt>
      <trkpt lat="43.71854" lon="4.01269">
        <ele>80.75</ele>
        <time>2025-10-10T08:14:58.200Z</time>
      </trkpt>
      <trkpt lat="43.7186" lon="4.01272">
        <ele>80.81</ele>
        <time>2025-10-10T08:15:03.224Z</time>
      </trkpt>
      <trkpt lat="43.71864" lon="4.0128">
        <ele>82.31</ele>
        <time>2025-10-10T08:15:08.722Z</time>
      </trkpt>
      <trkpt lat="43.71868" lon="4.01282">
        <ele>84.43</ele>
        <time>2025-10-10T08:15:14.224Z</time>
      </trkpt>
      <trkpt lat="43.71869" lon="4.01284">
        <ele>85.94</ele>
        <time>2025-10-10T08:15:19.572Z</time>
      </trkpt>
      <trkpt lat="43.71868" lon="4.01285">
        <ele>86.43</ele>
        <time>2025-10-10T08:15:25.213Z</time>
      </trkpt>
      <trkpt lat="43.71869" lon="4.01286">
        <ele>85.27</ele>
        <time>2025-10-10T08:15:33.096Z</time>
      </trkpt>
      <trkpt lat="43.7187" lon="4.01287">
        <ele>85.54</ele>
        <time>2025-10-10T08:15:38.452Z</time>
      </trkpt>
      <trkpt lat="43.71872" lon="4.01292">
        <ele>87.63</ele>
        <time>2025-10-10T08:15:44.101Z</time>
      </trkpt>
      <trkpt lat="43.71877" lon="4.01299">
        <ele>87.86</ele>
        <time>2025-10-10T08:15:49.116Z</time>
      </trkpt>
      <trkpt lat="43.71887" lon="4.01299">
        <ele>87.46</ele>
        <time>2025-10-10T08:15:54.131Z</time>
      </trkpt>
      <trkpt lat="43.71893" lon="4.01302">
        <ele>87.15</ele>
        <time>2025-10-10T08:15:59.146Z</time>
      </trkpt>
      <trkpt lat="43.71898" lon="4.01306">
        <ele>87.93</ele>
        <time>2025-10-10T08:16:04.842Z</time>
      </trkpt>
      <trkpt lat="43.71902" lon="4.01308">
        <ele>87.96</ele>
        <time>2025-10-10T08:16:09.918Z</time>
      </trkpt>
      <trkpt lat="43.71904" lon="4.01312">
        <ele>88.06</ele>
        <time>2025-10-10T08:16:15.426Z</time>
      </trkpt>
      <trkpt lat="43.71908" lon="4.01316">
        <ele>88.13</ele>
        <time>2025-10-10T08:16:20.998Z</time>
      </trkpt>
      <trkpt lat="43.71913" lon="4.01314">
        <ele>88.42</ele>
        <time>2025-10-10T08:16:26.143Z</time>
      </trkpt>
      <trkpt lat="43.71919" lon="4.01313">
        <ele>89.35</ele>
        <time>2025-10-10T08:16:31.160Z</time>
      </trkpt>
      <trkpt lat="43.71924" lon="4.0131">
        <ele>89.87</ele>
        <time>2025-10-10T08:16:36.173Z</time>
      </trkpt>
      <trkpt lat="43.71929" lon="4.01304">
        <ele>89.5</ele>
        <time>2025-10-10T08:16:42.037Z</time>
      </trkpt>
      <trkpt lat="43.71934" lon="4.01305">
        <ele>90.21</ele>
        <time>2025-10-10T08:16:47.755Z</time>
      </trkpt>
      <trkpt lat="43.71938" lon="4.01308">
        <ele>89.73</ele>
        <time>2025-10-10T08:16:53.140Z</time>
      </trkpt>
      <trkpt lat="43.71942" lon="4.0131">
        <ele>88.87</ele>
        <time>2025-10-10T08:16:58.155Z</time>
      </trkpt>
      <trkpt lat="43.7194" lon="4.0131">
        <ele>86.98</ele>
        <time>2025-10-10T08:17:03.170Z</time>
      </trkpt>
      <trkpt lat="43.71938" lon="4.0131">
        <ele>86.38</ele>
        <time>2025-10-10T08:17:08.185Z</time>
      </trkpt>
      <trkpt lat="43.71935" lon="4.01308">
        <ele>92.75</ele>
        <time>2025-10-10T08:17:13.200Z</time>
      </trkpt>
      <trkpt lat="43.71934" lon="4.01307">
        <ele>94.39</ele>
        <time>2025-10-10T08:17:19.176Z</time>
      </trkpt>
      <trkpt lat="43.71937" lon="4.01305">
        <ele>92.72</ele>
        <time>2025-10-10T08:17:24.726Z</time>
      </trkpt>
      <trkpt lat="43.71942" lon="4.01296">
        <ele>87.46</ele>
        <time>2025-10-10T08:17:30.188Z</time>
      </trkpt>
      <trkpt lat="43.71949" lon="4.01294">
        <ele>89.05</ele>
        <time>2025-10-10T08:17:35.726Z</time>
      </trkpt>
      <trkpt lat="43.71954" lon="4.01293">
        <ele>91.22</ele>
        <time>2025-10-10T08:17:40.867Z</time>
      </trkpt>
      <trkpt lat="43.71957" lon="4.01292">
        <ele>89.91</ele>
        <time>2025-10-10T08:17:46.172Z</time>
      </trkpt>
      <trkpt lat="43.71963" lon="4.01287">
        <ele>90.13</ele>
        <time>2025-10-10T08:17:52.149Z</time>
      </trkpt>
      <trkpt lat="43.71968" lon="4.01289">
        <ele>90.65</ele>
        <time>2025-10-10T08:17:57.664Z</time>
      </trkpt>
      <trkpt lat="43.71972" lon="4.01293">
        <ele>85.58</ele>
        <time>2025-10-10T08:18:02.803Z</time>
      </trkpt>
      <trkpt lat="43.71976" lon="4.01302">
        <ele>88.57</ele>
        <time>2025-10-10T08:18:08.155Z</time>
      </trkpt>
      <trkpt lat="43.71981" lon="4.01307">
        <ele>89.13</ele>
        <time>2025-10-10T08:18:13.528Z</time>
      </trkpt>
      <trkpt lat="43.71987" lon="4.01312">
        <ele>89.52</ele>
        <time>2025-10-10T08:18:19.146Z</time>
      </trkpt>
      <trkpt lat="43.71993" lon="4.01316">
        <ele>91.91</ele>
        <time>2025-10-10T08:18:24.563Z</time>
      </trkpt>
      <trkpt lat="43.71997" lon="4.01319">
        <ele>93.25</ele>
        <time>2025-10-10T08:18:30.137Z</time>
      </trkpt>
      <trkpt lat="43.71997" lon="4.01321">
        <ele>91.79</ele>
        <time>2025-10-10T08:18:36.112Z</time>
      </trkpt>
      <trkpt lat="43.71999" lon="4.01322">
        <ele>91.36</ele>
        <time>2025-10-10T08:18:41.841Z</time>
      </trkpt>
      <trkpt lat="43.72004" lon="4.0133">
        <ele>88.13</ele>
        <time>2025-10-10T08:18:46.980Z</time>
      </trkpt>
      <trkpt lat="43.7201" lon="4.01325">
        <ele>88.93</ele>
        <time>2025-10-10T08:18:52.118Z</time>
      </trkpt>
      <trkpt lat="43.72013" lon="4.01319">
        <ele>93.04</ele>
        <time>2025-10-10T08:18:57.241Z</time>
      </trkpt>
      <trkpt lat="43.72019" lon="4.01318">
        <ele>92.27</ele>
        <time>2025-10-10T08:19:02.410Z</time>
      </trkpt>
      <trkpt lat="43.72023" lon="4.01323">
        <ele>91.71</ele>
        <time>2025-10-10T08:19:07.422Z</time>
      </trkpt>
      <trkpt lat="43.72028" lon="4.01329">
        <ele>93.46</ele>
        <time>2025-10-10T08:19:13.140Z</time>
      </trkpt>
      <trkpt lat="43.72033" lon="4.01331">
        <ele>94.92</ele>
        <time>2025-10-10T08:19:18.761Z</time>
      </trkpt>
      <trkpt lat="43.72035" lon="4.01338">
        <ele>92.96</ele>
        <time>2025-10-10T08:19:24.131Z</time>
      </trkpt>
      <trkpt lat="43.72033" lon="4.01347">
        <ele>92.96</ele>
        <time>2025-10-10T08:19:29.441Z</time>
      </trkpt>
      <trkpt lat="43.72033" lon="4.01355">
        <ele>93.2</ele>
        <time>2025-10-10T08:19:34.785Z</time>
      </trkpt>
      <trkpt lat="43.72032" lon="4.01364">
        <ele>91.79</ele>
        <time>2025-10-10T08:19:40.136Z</time>
      </trkpt>
      <trkpt lat="43.72034" lon="4.0137">
        <ele>92.52</ele>
        <time>2025-10-10T08:19:45.287Z</time>
      </trkpt>
      <trkpt lat="43.72037" lon="4.01377">
        <ele>93.64</ele>
        <time>2025-10-10T08:19:50.605Z</time>
      </trkpt>
      <trkpt lat="43.72039" lon="4.01384">
        <ele>94.91</ele>
        <time>2025-10-10T08:19:55.665Z</time>
      </trkpt>
      <trkpt lat="43.72038" lon="4.01392">
        <ele>95.92</ele>
        <time>2025-10-10T08:20:01.125Z</time>
      </trkpt>
      <trkpt lat="43.72038" lon="4.01398">
        <ele>94.36</ele>
        <time>2025-10-10T08:20:06.174Z</time>
      </trkpt>
      <trkpt lat="43.72032" lon="4.01401">
        <ele>96.15</ele>
        <time>2025-10-10T08:20:11.725Z</time>
      </trkpt>
      <trkpt lat="43.72028" lon="4.01406">
        <ele>96.71</ele>
        <time>2025-10-10T08:20:16.962Z</time>
      </trkpt>
      <trkpt lat="43.72029" lon="4.01416">
        <ele>96.61</ele>
        <time>2025-10-10T08:20:22.528Z</time>
      </trkpt>
      <trkpt lat="43.72025" lon="4.01422">
        <ele>96.77</ele>
        <time>2025-10-10T08:20:27.849Z</time>
      </trkpt>
      <trkpt lat="43.72025" lon="4.01426">
        <ele>94.7</ele>
        <time>2025-10-10T08:20:33.073Z</time>
      </trkpt>
      <trkpt lat="43.72024" lon="4.01425">
        <ele>95.38</ele>
        <time>2025-10-10T08:20:38.088Z</time>
      </trkpt>
      <trkpt lat="43.72025" lon="4.01424">
        <ele>98.53</ele>
        <time>2025-10-10T08:20:48.119Z</time>
      </trkpt>
      <trkpt lat="43.72026" lon="4.01423">
        <ele>97.05</ele>
        <time>2025-10-10T08:21:03.009Z</time>
      </trkpt>
      <trkpt lat="43.72025" lon="4.01424">
        <ele>97.36</ele>
        <time>2025-10-10T08:21:16.610Z</time>
      </trkpt>
      <trkpt lat="43.72025" lon="4.01426">
        <ele>98.82</ele>
        <time>2025-10-10T08:21:22.134Z</time>
      </trkpt>
      <trkpt lat="43.72025" lon="4.01425">
        <ele>99.47</ele>
        <time>2025-10-10T08:21:27.173Z</time>
      </trkpt>
      <trkpt lat="43.72025" lon="4.01426">
        <ele>96.71</ele>
        <time>2025-10-10T08:22:25.975Z</time>
      </trkpt>
      <trkpt lat="43.72028" lon="4.01428">
        <ele>99.18</ele>
        <time>2025-10-10T08:22:30.990Z</time>
      </trkpt>
      <trkpt lat="43.72028" lon="4.0143">
        <ele>98.51</ele>
        <time>2025-10-10T08:22:36.215Z</time>
      </trkpt>
      <trkpt lat="43.72029" lon="4.01431">
        <ele>95.22</ele>
        <time>2025-10-10T08:22:42.191Z</time>
      </trkpt>
      <trkpt lat="43.7203" lon="4.01432">
        <ele>98.04</ele>
        <time>2025-10-10T08:22:58.734Z</time>
      </trkpt>
      <trkpt lat="43.72031" lon="4.01433">
        <ele>95.29</ele>
        <time>2025-10-10T08:23:04.173Z</time>
      </trkpt>
      <trkpt lat="43.72032" lon="4.01434">
        <ele>96.93</ele>
        <time>2025-10-10T08:23:10.935Z</time>
      </trkpt>
      <trkpt lat="43.72033" lon="4.01434">
        <ele>103.31</ele>
        <time>2025-10-10T08:23:17.018Z</time>
      </trkpt>
      <trkpt lat="43.72035" lon="4.01436">
        <ele>106.39</ele>
        <time>2025-10-10T08:23:22.075Z</time>
      </trkpt>
      <trkpt lat="43.72036" lon="4.01437">
        <ele>108.55</ele>
        <time>2025-10-10T08:23:27.179Z</time>
      </trkpt>
      <trkpt lat="43.72037" lon="4.01436">
        <ele>107.55</ele>
        <time>2025-10-10T08:23:33.182Z</time>
      </trkpt>
      <trkpt lat="43.72039" lon="4.01437">
        <ele>105.49</ele>
        <time>2025-10-10T08:23:38.214Z</time>
      </trkpt>
      <trkpt lat="43.7204" lon="4.01437">
        <ele>102.21</ele>
        <time>2025-10-10T08:23:44.188Z</time>
      </trkpt>
      <trkpt lat="43.72041" lon="4.01437">
        <ele>102.87</ele>
        <time>2025-10-10T08:24:09.158Z</time>
      </trkpt>
      <trkpt lat="43.72042" lon="4.01437">
        <ele>105.14</ele>
        <time>2025-10-10T08:24:23.137Z</time>
      </trkpt>
      <trkpt lat="43.72042" lon="4.01436">
        <ele>105.43</ele>
        <time>2025-10-10T08:24:45.226Z</time>
      </trkpt>
      <trkpt lat="43.72042" lon="4.01434">
        <ele>103.97</ele>
        <time>2025-10-10T08:24:51.202Z</time>
      </trkpt>
      <trkpt lat="43.72042" lon="4.01435">
        <ele>103.82</ele>
        <time>2025-10-10T08:25:26.013Z</time>
      </trkpt>
      <trkpt lat="43.72041" lon="4.01435">
        <ele>105.06</ele>
        <time>2025-10-10T08:25:39.115Z</time>
      </trkpt>
      <trkpt lat="43.72041" lon="4.01436">
        <ele>103.86</ele>
        <time>2025-10-10T08:26:18.014Z</time>
      </trkpt>
      <trkpt lat="43.7204" lon="4.01436">
        <ele>105.72</ele>
        <time>2025-10-10T08:26:27.015Z</time>
      </trkpt>
      <trkpt lat="43.72039" lon="4.01435">
        <ele>104.43</ele>
        <time>2025-10-10T08:26:45.016Z</time>
      </trkpt>
      <trkpt lat="43.72038" lon="4.01435">
        <ele>104.13</ele>
        <time>2025-10-10T08:26:52.016Z</time>
      </trkpt>
      <trkpt lat="43.72037" lon="4.01435">
        <ele>104.38</ele>
        <time>2025-10-10T08:27:49.017Z</time>
      </trkpt>
      <trkpt lat="43.72036" lon="4.01434">
        <ele>103.85</ele>
        <time>2025-10-10T08:27:57.016Z</time>
      </trkpt>
      <trkpt lat="43.72033" lon="4.01432">
        <ele>103.53</ele>
        <time>2025-10-10T08:28:02.017Z</time>
      </trkpt>
      <trkpt lat="43.72033" lon="4.01431">
        <ele>102.06</ele>
        <time>2025-10-10T08:28:07.017Z</time>
      </trkpt>
      <trkpt lat="43.72032" lon="4.01431">
        <ele>99.8</ele>
        <time>2025-10-10T08:28:20.018Z</time>
      </trkpt>
      <trkpt lat="43.72031" lon="4.01432">
        <ele>99.14</ele>
        <time>2025-10-10T08:28:25.018Z</time>
      </trkpt>
      <trkpt lat="43.7203" lon="4.01435">
        <ele>98.87</ele>
        <time>2025-10-10T08:28:30.018Z</time>
      </trkpt>
      <trkpt lat="43.72028" lon="4.01434">
        <ele>98.15</ele>
        <time>2025-10-10T08:28:36.017Z</time>
      </trkpt>
      <trkpt lat="43.72027" lon="4.01435">
        <ele>97.38</ele>
        <time>2025-10-10T08:28:49.017Z</time>
      </trkpt>
      <trkpt lat="43.72027" lon="4.01436">
        <ele>96.81</ele>
        <time>2025-10-10T08:29:08.019Z</time>
      </trkpt>
      <trkpt lat="43.72027" lon="4.01439">
        <ele>96.07</ele>
        <time>2025-10-10T08:29:13.019Z</time>
      </trkpt>
      <trkpt lat="43.72028" lon="4.0144">
        <ele>97.08</ele>
        <time>2025-10-10T08:29:24.019Z</time>
      </trkpt>
      <trkpt lat="43.72028" lon="4.01441">
        <ele>96.7</ele>
        <time>2025-10-10T08:29:44.019Z</time>
      </trkpt>
      <trkpt lat="43.72029" lon="4.01442">
        <ele>96.56</ele>
        <time>2025-10-10T08:29:49.019Z</time>
      </trkpt>
      <trkpt lat="43.72031" lon="4.01445">
        <ele>96.7</ele>
        <time>2025-10-10T08:29:54.019Z</time>
      </trkpt>
      <trkpt lat="43.72034" lon="4.01447">
        <ele>96.68</ele>
        <time>2025-10-10T08:29:59.019Z</time>
      </trkpt>
      <trkpt lat="43.72037" lon="4.01449">
        <ele>98.07</ele>
        <time>2025-10-10T08:30:04.020Z</time>
      </trkpt>
      <trkpt lat="43.72036" lon="4.01453">
        <ele>99.66</ele>
        <time>2025-10-10T08:30:09.182Z</time>
      </trkpt>
      <trkpt lat="43.72032" lon="4.01454">
        <ele>99.25</ele>
        <time>2025-10-10T08:30:14.319Z</time>
      </trkpt>
      <trkpt lat="43.72029" lon="4.01458">
        <ele>97.89</ele>
        <time>2025-10-10T08:30:19.678Z</time>
      </trkpt>
      <trkpt lat="43.72025" lon="4.01462">
        <ele>96.19</ele>
        <time>2025-10-10T08:30:25.167Z</time>
      </trkpt>
      <trkpt lat="43.72022" lon="4.01468">
        <ele>94.57</ele>
        <time>2025-10-10T08:30:31.038Z</time>
      </trkpt>
      <trkpt lat="43.72019" lon="4.01475">
        <ele>92.95</ele>
        <time>2025-10-10T08:30:36.214Z</time>
      </trkpt>
      <trkpt lat="43.72019" lon="4.01483">
        <ele>92.02</ele>
        <time>2025-10-10T08:30:41.753Z</time>
      </trkpt>
      <trkpt lat="43.7202" lon="4.0149">
        <ele>91.94</ele>
        <time>2025-10-10T08:30:47.036Z</time>
      </trkpt>
      <trkpt lat="43.7202" lon="4.01497">
        <ele>92.75</ele>
        <time>2025-10-10T08:30:52.274Z</time>
      </trkpt>
      <trkpt lat="43.72016" lon="4.01507">
        <ele>94.81</ele>
        <time>2025-10-10T08:30:57.958Z</time>
      </trkpt>
      <trkpt lat="43.72015" lon="4.01514">
        <ele>92.99</ele>
        <time>2025-10-10T08:31:03.080Z</time>
      </trkpt>
      <trkpt lat="43.72015" lon="4.0152">
        <ele>91.86</ele>
        <time>2025-10-10T08:31:08.173Z</time>
      </trkpt>
      <trkpt lat="43.72014" lon="4.01528">
        <ele>92.06</ele>
        <time>2025-10-10T08:31:13.857Z</time>
      </trkpt>
      <trkpt lat="43.72014" lon="4.01533">
        <ele>94.85</ele>
        <time>2025-10-10T08:31:19.165Z</time>
      </trkpt>
      <trkpt lat="43.72013" lon="4.01535">
        <ele>96.18</ele>
        <time>2025-10-10T08:31:25.141Z</time>
      </trkpt>
      <trkpt lat="43.72011" lon="4.01535">
        <ele>97.4</ele>
        <time>2025-10-10T08:31:33.144Z</time>
      </trkpt>
      <trkpt lat="43.72005" lon="4.01532">
        <ele>99.35</ele>
        <time>2025-10-10T08:31:38.159Z</time>
      </trkpt>
      <trkpt lat="43.72003" lon="4.01526">
        <ele>96.99</ele>
        <time>2025-10-10T08:31:43.214Z</time>
      </trkpt>
      <trkpt lat="43.71997" lon="4.01524">
        <ele>96.03</ele>
        <time>2025-10-10T08:31:48.558Z</time>
      </trkpt>
      <trkpt lat="43.71991" lon="4.01526">
        <ele>95.05</ele>
        <time>2025-10-10T08:31:54.036Z</time>
      </trkpt>
      <trkpt lat="43.71987" lon="4.01524">
        <ele>92.96</ele>
        <time>2025-10-10T08:31:59.097Z</time>
      </trkpt>
      <trkpt lat="43.71981" lon="4.01525">
        <ele>92.42</ele>
        <time>2025-10-10T08:32:04.494Z</time>
      </trkpt>
      <trkpt lat="43.71977" lon="4.0152">
        <ele>92.9</ele>
        <time>2025-10-10T08:32:10.068Z</time>
      </trkpt>
      <trkpt lat="43.71974" lon="4.01516">
        <ele>90.95</ele>
        <time>2025-10-10T08:32:15.190Z</time>
      </trkpt>
      <trkpt lat="43.71971" lon="4.01514">
        <ele>90.26</ele>
        <time>2025-10-10T08:32:20.206Z</time>
      </trkpt>
      <trkpt lat="43.71972" lon="4.01509">
        <ele>93.55</ele>
        <time>2025-10-10T08:32:25.220Z</time>
      </trkpt>
      <trkpt lat="43.71971" lon="4.01506">
        <ele>92.09</ele>
        <time>2025-10-10T08:32:31.196Z</time>
      </trkpt>
      <trkpt lat="43.71969" lon="4.01504">
        <ele>88.19</ele>
        <time>2025-10-10T08:32:37.174Z</time>
      </trkpt>
      <trkpt lat="43.71967" lon="4.01505">
        <ele>87.83</ele>
        <time>2025-10-10T08:32:45.072Z</time>
      </trkpt>
      <trkpt lat="43.71967" lon="4.01506">
        <ele>89.91</ele>
        <time>2025-10-10T08:32:53.180Z</time>
      </trkpt>
      <trkpt lat="43.71964" lon="4.01507">
        <ele>89.59</ele>
        <time>2025-10-10T08:32:58.197Z</time>
      </trkpt>
      <trkpt lat="43.7196" lon="4.01509">
        <ele>88.85</ele>
        <time>2025-10-10T08:33:03.659Z</time>
      </trkpt>
      <trkpt lat="43.71951" lon="4.01513">
        <ele>87.89</ele>
        <time>2025-10-10T08:33:08.835Z</time>
      </trkpt>
      <trkpt lat="43.71944" lon="4.01519">
        <ele>87.45</ele>
        <time>2025-10-10T08:33:13.861Z</time>
      </trkpt>
      <trkpt lat="43.7194" lon="4.01526">
        <ele>86.66</ele>
        <time>2025-10-10T08:33:19.113Z</time>
      </trkpt>
      <trkpt lat="43.71935" lon="4.01532">
        <ele>86.55</ele>
        <time>2025-10-10T08:33:24.700Z</time>
      </trkpt>
      <trkpt lat="43.71929" lon="4.01539">
        <ele>85.85</ele>
        <time>2025-10-10T08:33:30.115Z</time>
      </trkpt>
      <trkpt lat="43.71926" lon="4.01546">
        <ele>84.59</ele>
        <time>2025-10-10T08:33:35.120Z</time>
      </trkpt>
      <trkpt lat="43.71923" lon="4.01553">
        <ele>84.87</ele>
        <time>2025-10-10T08:33:41.018Z</time>
      </trkpt>
      <trkpt lat="43.71918" lon="4.01561">
        <ele>84.75</ele>
        <time>2025-10-10T08:33:46.513Z</time>
      </trkpt>
      <trkpt lat="43.71911" lon="4.01566">
        <ele>83.03</ele>
        <time>2025-10-10T08:33:51.896Z</time>
      </trkpt>
      <trkpt lat="43.71904" lon="4.01569">
        <ele>83.92</ele>
        <time>2025-10-10T08:33:57.374Z</time>
      </trkpt>
      <trkpt lat="43.71898" lon="4.01572">
        <ele>82.91</ele>
        <time>2025-10-10T08:34:02.876Z</time>
      </trkpt>
      <trkpt lat="43.7189" lon="4.01578">
        <ele>81.42</ele>
        <time>2025-10-10T08:34:08.878Z</time>
      </trkpt>
      <trkpt lat="43.71885" lon="4.01583">
        <ele>80.57</ele>
        <time>2025-10-10T08:34:14.178Z</time>
      </trkpt>
      <trkpt lat="43.71878" lon="4.01586">
        <ele>80.25</ele>
        <time>2025-10-10T08:34:19.692Z</time>
      </trkpt>
      <trkpt lat="43.71869" lon="4.01589">
        <ele>79.43</ele>
        <time>2025-10-10T08:34:25.012Z</time>
      </trkpt>
      <trkpt lat="43.71863" lon="4.0159">
        <ele>79.25</ele>
        <time>2025-10-10T08:34:30.035Z</time>
      </trkpt>
      <trkpt lat="43.71856" lon="4.01593">
        <ele>80.37</ele>
        <time>2025-10-10T08:34:35.450Z</time>
      </trkpt>
      <trkpt lat="43.71852" lon="4.01594">
        <ele>81.67</ele>
        <time>2025-10-10T08:34:40.541Z</time>
      </trkpt>
      <trkpt lat="43.71846" lon="4.01595">
        <ele>79.3</ele>
        <time>2025-10-10T08:34:46.020Z</time>
      </trkpt>
      <trkpt lat="43.71846" lon="4.01603">
        <ele>78.83</ele>
        <time>2025-10-10T08:34:51.208Z</time>
      </trkpt>
      <trkpt lat="43.7185" lon="4.01609">
        <ele>78.76</ele>
        <time>2025-10-10T08:34:56.224Z</time>
      </trkpt>
      <trkpt lat="43.71855" lon="4.01616">
        <ele>78.68</ele>
        <time>2025-10-10T08:35:02.175Z</time>
      </trkpt>
      <trkpt lat="43.71859" lon="4.01623">
        <ele>78.98</ele>
        <time>2025-10-10T08:35:07.253Z</time>
      </trkpt>
      <trkpt lat="43.71863" lon="4.01627">
        <ele>78.98</ele>
        <time>2025-10-10T08:35:13.079Z</time>
      </trkpt>
      <trkpt lat="43.71869" lon="4.01632">
        <ele>79.41</ele>
        <time>2025-10-10T08:35:18.352Z</time>
      </trkpt>
      <trkpt lat="43.71872" lon="4.01639">
        <ele>80.8</ele>
        <time>2025-10-10T08:35:23.436Z</time>
      </trkpt>
      <trkpt lat="43.7188" lon="4.01641">
        <ele>80.83</ele>
        <time>2025-10-10T08:35:28.817Z</time>
      </trkpt>
      <trkpt lat="43.71887" lon="4.01644">
        <ele>79.32</ele>
        <time>2025-10-10T08:35:34.082Z</time>
      </trkpt>
      <trkpt lat="43.71892" lon="4.01647">
        <ele>79.75</ele>
        <time>2025-10-10T08:35:39.622Z</time>
      </trkpt>
      <trkpt lat="43.71896" lon="4.0165">
        <ele>80.46</ele>
        <time>2025-10-10T08:35:44.860Z</time>
      </trkpt>
      <trkpt lat="43.71899" lon="4.01656">
        <ele>81.12</ele>
        <time>2025-10-10T08:35:49.902Z</time>
      </trkpt>
      <trkpt lat="43.71906" lon="4.01661">
        <ele>82.07</ele>
        <time>2025-10-10T08:35:55.042Z</time>
      </trkpt>
      <trkpt lat="43.71914" lon="4.01663">
        <ele>81.77</ele>
        <time>2025-10-10T08:36:00.699Z</time>
      </trkpt>
      <trkpt lat="43.71919" lon="4.01667">
        <ele>81.49</ele>
        <time>2025-10-10T08:36:06.138Z</time>
      </trkpt>
      <trkpt lat="43.71922" lon="4.01676">
        <ele>81.4</ele>
        <time>2025-10-10T08:36:11.378Z</time>
      </trkpt>
      <trkpt lat="43.71924" lon="4.01685">
        <ele>82.39</ele>
        <time>2025-10-10T08:36:16.384Z</time>
      </trkpt>
      <trkpt lat="43.71925" lon="4.01694">
        <ele>83.5</ele>
        <time>2025-10-10T08:36:21.693Z</time>
      </trkpt>
      <trkpt lat="43.7192" lon="4.01705">
        <ele>83.26</ele>
        <time>2025-10-10T08:36:27.160Z</time>
      </trkpt>
      <trkpt lat="43.71917" lon="4.01712">
        <ele>81.64</ele>
        <time>2025-10-10T08:36:32.675Z</time>
      </trkpt>
      <trkpt lat="43.71918" lon="4.01721">
        <ele>82.27</ele>
        <time>2025-10-10T08:36:38.118Z</time>
      </trkpt>
      <trkpt lat="43.71921" lon="4.01728">
        <ele>80.39</ele>
        <time>2025-10-10T08:36:43.167Z</time>
      </trkpt>
      <trkpt lat="43.71927" lon="4.01734">
        <ele>80.6</ele>
        <time>2025-10-10T08:36:48.184Z</time>
      </trkpt>
      <trkpt lat="43.71932" lon="4.01729">
        <ele>83.44</ele>
        <time>2025-10-10T08:36:53.325Z</time>
      </trkpt>
      <trkpt lat="43.71937" lon="4.01734">
        <ele>84.25</ele>
        <time>2025-10-10T08:36:58.732Z</time>
      </trkpt>
      <trkpt lat="43.71945" lon="4.01737">
        <ele>84.69</ele>
        <time>2025-10-10T08:37:03.890Z</time>
      </trkpt>
      <trkpt lat="43.71952" lon="4.0174">
        <ele>84.67</ele>
        <time>2025-10-10T08:37:09.205Z</time>
      </trkpt>
      <trkpt lat="43.71958" lon="4.01741">
        <ele>85.31</ele>
        <time>2025-10-10T08:37:14.232Z</time>
      </trkpt>
      <trkpt lat="43.71963" lon="4.01743">
        <ele>86.17</ele>
        <time>2025-10-10T08:37:20.092Z</time>
      </trkpt>
      <trkpt lat="43.7197" lon="4.01741">
        <ele>86.08</ele>
        <time>2025-10-10T08:37:25.212Z</time>
      </trkpt>
      <trkpt lat="43.71976" lon="4.01747">
        <ele>85.46</ele>
        <time>2025-10-10T08:37:30.227Z</time>
      </trkpt>
      <trkpt lat="43.71981" lon="4.01754">
        <ele>85.75</ele>
        <time>2025-10-10T08:37:35.243Z</time>
      </trkpt>
      <trkpt lat="43.71986" lon="4.01758">
        <ele>85.65</ele>
        <time>2025-10-10T08:37:40.251Z</time>
      </trkpt>
      <trkpt lat="43.7199" lon="4.01763">
        <ele>87.94</ele>
        <time>2025-10-10T08:37:45.620Z</time>
      </trkpt>
      <trkpt lat="43.71991" lon="4.01769">
        <ele>88.9</ele>
        <time>2025-10-10T08:37:51.251Z</time>
      </trkpt>
      <trkpt lat="43.71988" lon="4.01777">
        <ele>90.3</ele>
        <time>2025-10-10T08:37:57.043Z</time>
      </trkpt>
      <trkpt lat="43.71983" lon="4.01782">
        <ele>91.07</ele>
        <time>2025-10-10T08:38:02.134Z</time>
      </trkpt>
      <trkpt lat="43.71978" lon="4.01787">
        <ele>89.93</ele>
        <time>2025-10-10T08:38:07.552Z</time>
      </trkpt>
      <trkpt lat="43.71975" lon="4.01793">
        <ele>89.87</ele>
        <time>2025-10-10T08:38:12.851Z</time>
      </trkpt>
      <trkpt lat="43.71971" lon="4.01799">
        <ele>94.2</ele>
        <time>2025-10-10T08:38:18.247Z</time>
      </trkpt>
      <trkpt lat="43.71965" lon="4.018">
        <ele>94.29</ele>
        <time>2025-10-10T08:38:24.216Z</time>
      </trkpt>
      <trkpt lat="43.71961" lon="4.01803">
        <ele>93.77</ele>
        <time>2025-10-10T08:38:29.545Z</time>
      </trkpt>
      <trkpt lat="43.71955" lon="4.01809">
        <ele>94.25</ele>
        <time>2025-10-10T08:38:35.162Z</time>
      </trkpt>
      <trkpt lat="43.71953" lon="4.01814">
        <ele>94.46</ele>
        <time>2025-10-10T08:38:40.464Z</time>
      </trkpt>
      <trkpt lat="43.71956" lon="4.01819">
        <ele>94.86</ele>
        <time>2025-10-10T08:38:45.622Z</time>
      </trkpt>
      <trkpt lat="43.71959" lon="4.01825">
        <ele>95.32</ele>
        <time>2025-10-10T08:38:51.238Z</time>
      </trkpt>
      <trkpt lat="43.71962" lon="4.0183">
        <ele>95.25</ele>
        <time>2025-10-10T08:38:56.716Z</time>
      </trkpt>
      <trkpt lat="43.71963" lon="4.01836">
        <ele>95.03</ele>
        <time>2025-10-10T08:39:01.938Z</time>
      </trkpt>
      <trkpt lat="43.71968" lon="4.0184">
        <ele>93.85</ele>
        <time>2025-10-10T08:39:07.244Z</time>
      </trkpt>
      <trkpt lat="43.71972" lon="4.01836">
        <ele>93.25</ele>
        <time>2025-10-10T08:39:12.761Z</time>
      </trkpt>
      <trkpt lat="43.71976" lon="4.0184">
        <ele>93.32</ele>
        <time>2025-10-10T08:39:18.235Z</time>
      </trkpt>
      <trkpt lat="43.71982" lon="4.01843">
        <ele>92.74</ele>
        <time>2025-10-10T08:39:23.811Z</time>
      </trkpt>
      <trkpt lat="43.71985" lon="4.01845">
        <ele>93.66</ele>
        <time>2025-10-10T08:39:29.226Z</time>
      </trkpt>
      <trkpt lat="43.7199" lon="4.01849">
        <ele>94.55</ele>
        <time>2025-10-10T08:39:34.715Z</time>
      </trkpt>
      <trkpt lat="43.71992" lon="4.01856">
        <ele>95.41</ele>
        <time>2025-10-10T08:39:39.884Z</time>
      </trkpt>
      <trkpt lat="43.71995" lon="4.01861">
        <ele>95.28</ele>
        <time>2025-10-10T08:39:44.945Z</time>
      </trkpt>
      <trkpt lat="43.71998" lon="4.01865">
        <ele>95.11</ele>
        <time>2025-10-10T08:39:50.165Z</time>
      </trkpt>
      <trkpt lat="43.72" lon="4.01868">
        <ele>94.66</ele>
        <time>2025-10-10T08:39:55.502Z</time>
      </trkpt>
      <trkpt lat="43.72003" lon="4.01873">
        <ele>94.95</ele>
        <time>2025-10-10T08:40:00.603Z</time>
      </trkpt>
      <trkpt lat="43.72003" lon="4.01877">
        <ele>95.53</ele>
        <time>2025-10-10T08:40:05.744Z</time>
      </trkpt>
      <trkpt lat="43.72003" lon="4.01879">
        <ele>95.12</ele>
        <time>2025-10-10T08:40:10.962Z</time>
      </trkpt>
      <trkpt lat="43.72004" lon="4.0188">
        <ele>96.96</ele>
        <time>2025-10-10T08:40:16.466Z</time>
      </trkpt>
      <trkpt lat="43.72004" lon="4.01881">
        <ele>100.24</ele>
        <time>2025-10-10T08:40:25.247Z</time>
      </trkpt>
      <trkpt lat="43.72005" lon="4.01883">
        <ele>99.14</ele>
        <time>2025-10-10T08:40:30.263Z</time>
      </trkpt>
      <trkpt lat="43.72004" lon="4.01885">
        <ele>98.31</ele>
        <time>2025-10-10T08:40:51.180Z</time>
      </trkpt>
      <trkpt lat="43.72005" lon="4.01886">
        <ele>96</ele>
        <time>2025-10-10T08:40:56.193Z</time>
      </trkpt>
      <trkpt lat="43.72006" lon="4.0189">
        <ele>92.69</ele>
        <time>2025-10-10T08:41:02.019Z</time>
      </trkpt>
      <trkpt lat="43.72005" lon="4.01891">
        <ele>99.55</ele>
        <time>2025-10-10T08:41:11.239Z</time>
      </trkpt>
      <trkpt lat="43.72005" lon="4.01889">
        <ele>97.75</ele>
        <time>2025-10-10T08:41:19.136Z</time>
      </trkpt>
      <trkpt lat="43.72005" lon="4.01891">
        <ele>97.35</ele>
        <time>2025-10-10T08:42:30.034Z</time>
      </trkpt>
      <trkpt lat="43.72005" lon="4.01892">
        <ele>99.1</ele>
        <time>2025-10-10T08:42:37.035Z</time>
      </trkpt>
      <trkpt lat="43.72005" lon="4.01894">
        <ele>98.39</ele>
        <time>2025-10-10T08:42:47.171Z</time>
      </trkpt>
      <trkpt lat="43.72004" lon="4.01898">
        <ele>96.69</ele>
        <time>2025-10-10T08:42:52.506Z</time>
      </trkpt>
      <trkpt lat="43.72005" lon="4.01906">
        <ele>96.22</ele>
        <time>2025-10-10T08:42:58.162Z</time>
      </trkpt>
      <trkpt lat="43.72003" lon="4.01913">
        <ele>96.5</ele>
        <time>2025-10-10T08:43:03.614Z</time>
      </trkpt>
      <trkpt lat="43.72002" lon="4.01918">
        <ele>97.3</ele>
        <time>2025-10-10T08:43:09.153Z</time>
      </trkpt>
      <trkpt lat="43.72001" lon="4.01917">
        <ele>99.04</ele>
        <time>2025-10-10T08:43:14.167Z</time>
      </trkpt>
      <trkpt lat="43.71999" lon="4.01919">
        <ele>97.03</ele>
        <time>2025-10-10T08:43:20.144Z</time>
      </trkpt>
      <trkpt lat="43.71998" lon="4.01918">
        <ele>96.45</ele>
        <time>2025-10-10T08:43:34.122Z</time>
      </trkpt>
      <trkpt lat="43.71999" lon="4.01919">
        <ele>98.09</ele>
        <time>2025-10-10T08:43:51.035Z</time>
      </trkpt>
      <trkpt lat="43.71998" lon="4.01918">
        <ele>96.66</ele>
        <time>2025-10-10T08:44:04.948Z</time>
      </trkpt>
      <trkpt lat="43.72" lon="4.01916">
        <ele>97.29</ele>
        <time>2025-10-10T08:44:09.979Z</time>
      </trkpt>
      <trkpt lat="43.72002" lon="4.01907">
        <ele>97.84</ele>
        <time>2025-10-10T08:44:15.208Z</time>
      </trkpt>
      <trkpt lat="43.72002" lon="4.01901">
        <ele>98.49</ele>
        <time>2025-10-10T08:44:20.223Z</time>
      </trkpt>
      <trkpt lat="43.71999" lon="4.01895">
        <ele>98.58</ele>
        <time>2025-10-10T08:44:25.908Z</time>
      </trkpt>
      <trkpt lat="43.71996" lon="4.01888">
        <ele>98.08</ele>
        <time>2025-10-10T08:44:32.175Z</time>
      </trkpt>
      <trkpt lat="43.71993" lon="4.01883">
        <ele>97.13</ele>
        <time>2025-10-10T08:44:37.212Z</time>
      </trkpt>
      <trkpt lat="43.71992" lon="4.0188">
        <ele>96.71</ele>
        <time>2025-10-10T08:44:42.591Z</time>
      </trkpt>
      <trkpt lat="43.71992" lon="4.01882">
        <ele>94.8</ele>
        <time>2025-10-10T08:44:47.748Z</time>
      </trkpt>
      <trkpt lat="43.71991" lon="4.01883">
        <ele>97.1</ele>
        <time>2025-10-10T08:44:53.198Z</time>
      </trkpt>
      <trkpt lat="43.7199" lon="4.01885">
        <ele>96.55</ele>
        <time>2025-10-10T08:44:58.213Z</time>
      </trkpt>
      <trkpt lat="43.71988" lon="4.01886">
        <ele>95.79</ele>
        <time>2025-10-10T08:45:03.587Z</time>
      </trkpt>
      <trkpt lat="43.71985" lon="4.01887">
        <ele>97.52</ele>
        <time>2025-10-10T08:45:08.709Z</time>
      </trkpt>
      <trkpt lat="43.71982" lon="4.01887">
        <ele>97.62</ele>
        <time>2025-10-10T08:45:14.249Z</time>
      </trkpt>
      <trkpt lat="43.71972" lon="4.01888">
        <ele>98.49</ele>
        <time>2025-10-10T08:45:19.987Z</time>
      </trkpt>
      <trkpt lat="43.71965" lon="4.01887">
        <ele>96.89</ele>
        <time>2025-10-10T08:45:25.212Z</time>
      </trkpt>
      <trkpt lat="43.71962" lon="4.01887">
        <ele>94.36</ele>
        <time>2025-10-10T08:45:30.585Z</time>
      </trkpt>
      <trkpt lat="43.7196" lon="4.01892">
        <ele>94.9</ele>
        <time>2025-10-10T08:45:35.883Z</time>
      </trkpt>
      <trkpt lat="43.71962" lon="4.01895">
        <ele>94.84</ele>
        <time>2025-10-10T08:45:41.219Z</time>
      </trkpt>
      <trkpt lat="43.7196" lon="4.01896">
        <ele>94.81</ele>
        <time>2025-10-10T08:45:46.235Z</time>
      </trkpt>
      <trkpt lat="43.71959" lon="4.01895">
        <ele>94.15</ele>
        <time>2025-10-10T08:45:51.251Z</time>
      </trkpt>
      <trkpt lat="43.71958" lon="4.01896">
        <ele>93.58</ele>
        <time>2025-10-10T08:46:14.039Z</time>
      </trkpt>
      <trkpt lat="43.71958" lon="4.01895">
        <ele>94.74</ele>
        <time>2025-10-10T08:46:27.177Z</time>
      </trkpt>
      <trkpt lat="43.71959" lon="4.0189">
        <ele>94.88</ele>
        <time>2025-10-10T08:46:32.748Z</time>
      </trkpt>
      <trkpt lat="43.71957" lon="4.01886">
        <ele>95.15</ele>
        <time>2025-10-10T08:46:37.885Z</time>
      </trkpt>
      <trkpt lat="43.71956" lon="4.01885">
        <ele>94.42</ele>
        <time>2025-10-10T08:46:43.184Z</time>
      </trkpt>
      <trkpt lat="43.71956" lon="4.01883">
        <ele>90</ele>
        <time>2025-10-10T08:46:49.159Z</time>
      </trkpt>
      <trkpt lat="43.71957" lon="4.01885">
        <ele>89.6</ele>
        <time>2025-10-10T08:46:55.128Z</time>
      </trkpt>
      <trkpt lat="43.71955" lon="4.01891">
        <ele>91.78</ele>
        <time>2025-10-10T08:47:00.706Z</time>
      </trkpt>
      <trkpt lat="43.7195" lon="4.01892">
        <ele>93.18</ele>
        <time>2025-10-10T08:47:06.152Z</time>
      </trkpt>
      <trkpt lat="43.71947" lon="4.01896">
        <ele>96.77</ele>
        <time>2025-10-10T08:47:12.210Z</time>
      </trkpt>
      <trkpt lat="43.71946" lon="4.01897">
        <ele>91.1</ele>
        <time>2025-10-10T08:47:21.173Z</time>
      </trkpt>
      <trkpt lat="43.71942" lon="4.01906">
        <ele>88.46</ele>
        <time>2025-10-10T08:47:26.440Z</time>
      </trkpt>
      <trkpt lat="43.71933" lon="4.01913">
        <ele>90.95</ele>
        <time>2025-10-10T08:47:31.927Z</time>
      </trkpt>
      <trkpt lat="43.71928" lon="4.01911">
        <ele>92.05</ele>
        <time>2025-10-10T08:47:37.181Z</time>
      </trkpt>
      <trkpt lat="43.71925" lon="4.01915">
        <ele>91.29</ele>
        <time>2025-10-10T08:47:42.197Z</time>
      </trkpt>
      <trkpt lat="43.71918" lon="4.01918">
        <ele>89.45</ele>
        <time>2025-10-10T08:47:48.173Z</time>
      </trkpt>
      <trkpt lat="43.71914" lon="4.01914">
        <ele>91.6</ele>
        <time>2025-10-10T08:47:53.182Z</time>
      </trkpt>
      <trkpt lat="43.71908" lon="4.01911">
        <ele>92.18</ele>
        <time>2025-10-10T08:47:58.561Z</time>
      </trkpt>
      <trkpt lat="43.71903" lon="4.01916">
        <ele>90.42</ele>
        <time>2025-10-10T08:48:04.131Z</time>
      </trkpt>
      <trkpt lat="43.71899" lon="4.01914">
        <ele>90.68</ele>
        <time>2025-10-10T08:48:09.196Z</time>
      </trkpt>
      <trkpt lat="43.719" lon="4.01915">
        <ele>90.39</ele>
        <time>2025-10-10T08:48:14.211Z</time>
      </trkpt>
      <trkpt lat="43.71899" lon="4.01914">
        <ele>94.41</ele>
        <time>2025-10-10T08:48:19.807Z</time>
      </trkpt>
      <trkpt lat="43.71891" lon="4.0191">
        <ele>93.18</ele>
        <time>2025-10-10T08:48:25.205Z</time>
      </trkpt>
      <trkpt lat="43.71884" lon="4.01911">
        <ele>91.06</ele>
        <time>2025-10-10T08:48:30.426Z</time>
      </trkpt>
      <trkpt lat="43.71879" lon="4.01905">
        <ele>91.53</ele>
        <time>2025-10-10T08:48:35.904Z</time>
      </trkpt>
      <trkpt lat="43.71874" lon="4.01898">
        <ele>91.6</ele>
        <time>2025-10-10T08:48:41.209Z</time>
      </trkpt>
      <trkpt lat="43.7187" lon="4.01897">
        <ele>90.97</ele>
        <time>2025-10-10T08:48:46.226Z</time>
      </trkpt>
      <trkpt lat="43.71869" lon="4.01902">
        <ele>90.17</ele>
        <time>2025-10-10T08:48:51.403Z</time>
      </trkpt>
      <trkpt lat="43.71864" lon="4.01902">
        <ele>89.56</ele>
        <time>2025-10-10T08:48:57.218Z</time>
      </trkpt>
      <trkpt lat="43.71861" lon="4.01913">
        <ele>90.79</ele>
        <time>2025-10-10T08:49:02.769Z</time>
      </trkpt>
      <trkpt lat="43.71855" lon="4.01918">
        <ele>91.28</ele>
        <time>2025-10-10T08:49:07.891Z</time>
      </trkpt>
      <trkpt lat="43.7185" lon="4.01921">
        <ele>92.87</ele>
        <time>2025-10-10T08:49:13.225Z</time>
      </trkpt>
      <trkpt lat="43.71847" lon="4.01926">
        <ele>95.46</ele>
        <time>2025-10-10T08:49:18.270Z</time>
      </trkpt>
      <trkpt lat="43.71842" lon="4.0193">
        <ele>94.27</ele>
        <time>2025-10-10T08:49:23.871Z</time>
      </trkpt>
      <trkpt lat="43.71842" lon="4.01938">
        <ele>94.09</ele>
        <time>2025-10-10T08:49:29.125Z</time>
      </trkpt>
      <trkpt lat="43.71843" lon="4.01945">
        <ele>94.37</ele>
        <time>2025-10-10T08:49:34.248Z</time>
      </trkpt>
      <trkpt lat="43.71847" lon="4.0195">
        <ele>93.11</ele>
        <time>2025-10-10T08:49:39.711Z</time>
      </trkpt>
      <trkpt lat="43.71848" lon="4.01956">
        <ele>91.61</ele>
        <time>2025-10-10T08:49:45.133Z</time>
      </trkpt>
      <trkpt lat="43.71851" lon="4.01961">
        <ele>93.82</ele>
        <time>2025-10-10T08:49:50.710Z</time>
      </trkpt>
      <trkpt lat="43.71849" lon="4.01967">
        <ele>93.56</ele>
        <time>2025-10-10T08:49:56.152Z</time>
      </trkpt>
      <trkpt lat="43.71845" lon="4.01972">
        <ele>93.09</ele>
        <time>2025-10-10T08:50:01.212Z</time>
      </trkpt>
      <trkpt lat="43.71844" lon="4.01979">
        <ele>92.28</ele>
        <time>2025-10-10T08:50:07.188Z</time>
      </trkpt>
      <trkpt lat="43.71847" lon="4.01984">
        <ele>91.95</ele>
        <time>2025-10-10T08:50:12.238Z</time>
      </trkpt>
      <trkpt lat="43.71853" lon="4.01988">
        <ele>93.66</ele>
        <time>2025-10-10T08:50:18.214Z</time>
      </trkpt>
      <trkpt lat="43.71848" lon="4.01992">
        <ele>93.3</ele>
        <time>2025-10-10T08:50:23.229Z</time>
      </trkpt>
      <trkpt lat="43.71845" lon="4.01998">
        <ele>94.91</ele>
        <time>2025-10-10T08:50:28.588Z</time>
      </trkpt>
      <trkpt lat="43.71842" lon="4.02004">
        <ele>94.54</ele>
        <time>2025-10-10T08:50:33.868Z</time>
      </trkpt>
      <trkpt lat="43.71837" lon="4.02004">
        <ele>94.51</ele>
        <time>2025-10-10T08:50:39.152Z</time>
      </trkpt>
      <trkpt lat="43.71831" lon="4.0201">
        <ele>95.27</ele>
        <time>2025-10-10T08:50:44.530Z</time>
      </trkpt>
      <trkpt lat="43.71823" lon="4.0201">
        <ele>94.92</ele>
        <time>2025-10-10T08:50:50.121Z</time>
      </trkpt>
      <trkpt lat="43.7182" lon="4.02019">
        <ele>94.04</ele>
        <time>2025-10-10T08:50:56.205Z</time>
      </trkpt>
      <trkpt lat="43.71814" lon="4.02017">
        <ele>96</ele>
        <time>2025-10-10T08:51:02.067Z</time>
      </trkpt>
      <trkpt lat="43.71808" lon="4.02016">
        <ele>96.25</ele>
        <time>2025-10-10T08:51:07.073Z</time>
      </trkpt>
      <trkpt lat="43.71803" lon="4.02015">
        <ele>95.94</ele>
        <time>2025-10-10T08:51:12.215Z</time>
      </trkpt>
      <trkpt lat="43.71794" lon="4.02015">
        <ele>96.05</ele>
        <time>2025-10-10T08:51:17.549Z</time>
      </trkpt>
      <trkpt lat="43.7179" lon="4.02021">
        <ele>97.39</ele>
        <time>2025-10-10T08:51:23.203Z</time>
      </trkpt>
      <trkpt lat="43.71789" lon="4.02024">
        <ele>97.44</ele>
        <time>2025-10-10T08:51:28.218Z</time>
      </trkpt>
      <trkpt lat="43.71788" lon="4.02026">
        <ele>95.97</ele>
        <time>2025-10-10T08:51:33.234Z</time>
      </trkpt>
      <trkpt lat="43.71789" lon="4.02027">
        <ele>96.32</ele>
        <time>2025-10-10T08:51:42.831Z</time>
      </trkpt>
      <trkpt lat="43.71788" lon="4.02029">
        <ele>95.93</ele>
        <time>2025-10-10T08:51:48.174Z</time>
      </trkpt>
      <trkpt lat="43.71789" lon="4.02042">
        <ele>96.1</ele>
        <time>2025-10-10T08:51:53.449Z</time>
      </trkpt>
      <trkpt lat="43.71792" lon="4.02055">
        <ele>96.84</ele>
        <time>2025-10-10T08:51:58.687Z</time>
      </trkpt>
      <trkpt lat="43.71793" lon="4.02064">
        <ele>96.99</ele>
        <time>2025-10-10T08:52:04.147Z</time>
      </trkpt>
      <trkpt lat="43.71796" lon="4.02073">
        <ele>95.68</ele>
        <time>2025-10-10T08:52:09.812Z</time>
      </trkpt>
      <trkpt lat="43.71799" lon="4.02079">
        <ele>93.82</ele>
        <time>2025-10-10T08:52:15.148Z</time>
      </trkpt>
      <trkpt lat="43.71801" lon="4.02079">
        <ele>93.76</ele>
        <time>2025-10-10T08:52:20.188Z</time>
      </trkpt>
      <trkpt lat="43.71801" lon="4.02082">
        <ele>95.59</ele>
        <time>2025-10-10T08:52:25.552Z</time>
      </trkpt>
      <trkpt lat="43.718" lon="4.02083">
        <ele>95.24</ele>
        <time>2025-10-10T08:52:30.727Z</time>
      </trkpt>
      <trkpt lat="43.71798" lon="4.02085">
        <ele>94.27</ele>
        <time>2025-10-10T08:52:36.010Z</time>
      </trkpt>
      <trkpt lat="43.71795" lon="4.02092">
        <ele>94.33</ele>
        <time>2025-10-10T08:52:41.070Z</time>
      </trkpt>
      <trkpt lat="43.7179" lon="4.021">
        <ele>95.63</ele>
        <time>2025-10-10T08:52:46.652Z</time>
      </trkpt>
      <trkpt lat="43.71785" lon="4.02106">
        <ele>94.39</ele>
        <time>2025-10-10T08:52:52.053Z</time>
      </trkpt>
      <trkpt lat="43.71785" lon="4.02109">
        <ele>94.07</ele>
        <time>2025-10-10T08:52:58.178Z</time>
      </trkpt>
      <trkpt lat="43.71784" lon="4.02109">
        <ele>93.17</ele>
        <time>2025-10-10T08:53:11.862Z</time>
      </trkpt>
      <trkpt lat="43.7178" lon="4.02113">
        <ele>92.79</ele>
        <time>2025-10-10T08:53:17.173Z</time>
      </trkpt>
      <trkpt lat="43.71771" lon="4.02122">
        <ele>94.65</ele>
        <time>2025-10-10T08:53:22.188Z</time>
      </trkpt>
      <trkpt lat="43.71766" lon="4.02131">
        <ele>95.66</ele>
        <time>2025-10-10T08:53:27.204Z</time>
      </trkpt>
      <trkpt lat="43.71761" lon="4.02141">
        <ele>94.34</ele>
        <time>2025-10-10T08:53:32.979Z</time>
      </trkpt>
      <trkpt lat="43.71757" lon="4.02148">
        <ele>93.6</ele>
        <time>2025-10-10T08:53:38.195Z</time>
      </trkpt>
      <trkpt lat="43.71753" lon="4.02155">
        <ele>93.82</ele>
        <time>2025-10-10T08:53:44.033Z</time>
      </trkpt>
      <trkpt lat="43.7175" lon="4.02157">
        <ele>93.02</ele>
        <time>2025-10-10T08:53:49.187Z</time>
      </trkpt>
      <trkpt lat="43.71749" lon="4.02164">
        <ele>93.41</ele>
        <time>2025-10-10T08:53:54.616Z</time>
      </trkpt>
      <trkpt lat="43.71747" lon="4.02171">
        <ele>93.73</ele>
        <time>2025-10-10T08:53:59.718Z</time>
      </trkpt>
      <trkpt lat="43.71746" lon="4.02172">
        <ele>91.73</ele>
        <time>2025-10-10T08:54:05.194Z</time>
      </trkpt>
      <trkpt lat="43.71747" lon="4.02173">
        <ele>91.44</ele>
        <time>2025-10-10T08:54:10.209Z</time>
      </trkpt>
      <trkpt lat="43.71747" lon="4.02174">
        <ele>91.36</ele>
        <time>2025-10-10T08:54:15.225Z</time>
      </trkpt>
      <trkpt lat="43.71748" lon="4.02173">
        <ele>92.26</ele>
        <time>2025-10-10T08:54:34.219Z</time>
      </trkpt>
      <trkpt lat="43.71749" lon="4.02172">
        <ele>92.02</ele>
        <time>2025-10-10T08:54:39.235Z</time>
      </trkpt>
      <trkpt lat="43.7175" lon="4.02171">
        <ele>91.46</ele>
        <time>2025-10-10T08:54:50.226Z</time>
      </trkpt>
      <trkpt lat="43.71749" lon="4.02173">
        <ele>91.53</ele>
        <time>2025-10-10T08:55:07.159Z</time>
      </trkpt>
      <trkpt lat="43.71747" lon="4.02181">
        <ele>92.85</ele>
        <time>2025-10-10T08:55:13.039Z</time>
      </trkpt>
      <trkpt lat="43.71749" lon="4.02184">
        <ele>93.14</ele>
        <time>2025-10-10T08:55:18.184Z</time>
      </trkpt>
      <trkpt lat="43.71747" lon="4.02179">
        <ele>93.5</ele>
        <time>2025-10-10T08:55:23.452Z</time>
      </trkpt>
      <trkpt lat="43.71747" lon="4.02181">
        <ele>92.99</ele>
        <time>2025-10-10T08:55:28.752Z</time>
      </trkpt>
      <trkpt lat="43.71746" lon="4.02184">
        <ele>91.92</ele>
        <time>2025-10-10T08:55:34.191Z</time>
      </trkpt>
      <trkpt lat="43.71745" lon="4.02189">
        <ele>92.39</ele>
        <time>2025-10-10T08:55:39.815Z</time>
      </trkpt>
      <trkpt lat="43.7174" lon="4.02199">
        <ele>91.97</ele>
        <time>2025-10-10T08:55:45.596Z</time>
      </trkpt>
      <trkpt lat="43.71736" lon="4.02202">
        <ele>92.43</ele>
        <time>2025-10-10T08:55:51.274Z</time>
      </trkpt>
      <trkpt lat="43.71734" lon="4.02203">
        <ele>92.39</ele>
        <time>2025-10-10T08:55:56.781Z</time>
      </trkpt>
      <trkpt lat="43.71733" lon="4.02207">
        <ele>92.33</ele>
        <time>2025-10-10T08:56:02.028Z</time>
      </trkpt>
      <trkpt lat="43.71733" lon="4.02215">
        <ele>92.26</ele>
        <time>2025-10-10T08:56:07.586Z</time>
      </trkpt>
      <trkpt lat="43.7173" lon="4.02224">
        <ele>91.2</ele>
        <time>2025-10-10T08:56:13.226Z</time>
      </trkpt>
      <trkpt lat="43.71725" lon="4.0223">
        <ele>91.37</ele>
        <time>2025-10-10T08:56:19.250Z</time>
      </trkpt>
      <trkpt lat="43.71725" lon="4.02232">
        <ele>89.92</ele>
        <time>2025-10-10T08:56:29.174Z</time>
      </trkpt>
      <trkpt lat="43.71723" lon="4.02238">
        <ele>90.06</ele>
        <time>2025-10-10T08:56:35.143Z</time>
      </trkpt>
      <trkpt lat="43.71719" lon="4.02246">
        <ele>90.28</ele>
        <time>2025-10-10T08:56:40.272Z</time>
      </trkpt>
      <trkpt lat="43.71713" lon="4.0225">
        <ele>90.88</ele>
        <time>2025-10-10T08:56:45.608Z</time>
      </trkpt>
      <trkpt lat="43.71706" lon="4.02254">
        <ele>90.93</ele>
        <time>2025-10-10T08:56:51.106Z</time>
      </trkpt>
      <trkpt lat="43.71704" lon="4.02252">
        <ele>90.75</ele>
        <time>2025-10-10T08:56:56.745Z</time>
      </trkpt>
      <trkpt lat="43.71699" lon="4.02252">
        <ele>90.15</ele>
        <time>2025-10-10T08:57:01.859Z</time>
      </trkpt>
      <trkpt lat="43.71694" lon="4.02252">
        <ele>90.96</ele>
        <time>2025-10-10T08:57:06.989Z</time>
      </trkpt>
      <trkpt lat="43.71689" lon="4.02251">
        <ele>91.97</ele>
        <time>2025-10-10T08:57:12.179Z</time>
      </trkpt>
      <trkpt lat="43.71684" lon="4.02249">
        <ele>92.21</ele>
        <time>2025-10-10T08:57:17.223Z</time>
      </trkpt>
      <trkpt lat="43.71679" lon="4.02252">
        <ele>91.71</ele>
        <time>2025-10-10T08:57:23.128Z</time>
      </trkpt>
      <trkpt lat="43.71675" lon="4.02257">
        <ele>90.79</ele>
        <time>2025-10-10T08:57:28.185Z</time>
      </trkpt>
      <trkpt lat="43.71669" lon="4.02261">
        <ele>90.66</ele>
        <time>2025-10-10T08:57:33.711Z</time>
      </trkpt>
      <trkpt lat="43.71664" lon="4.02263">
        <ele>90.54</ele>
        <time>2025-10-10T08:57:38.888Z</time>
      </trkpt>
      <trkpt lat="43.71658" lon="4.02262">
        <ele>91.07</ele>
        <time>2025-10-10T08:57:43.978Z</time>
      </trkpt>
      <trkpt lat="43.71653" lon="4.02262">
        <ele>90.4</ele>
        <time>2025-10-10T08:57:49.202Z</time>
      </trkpt>
      <trkpt lat="43.71651" lon="4.0226">
        <ele>89.41</ele>
        <time>2025-10-10T08:57:54.608Z</time>
      </trkpt>
      <trkpt lat="43.71649" lon="4.0226">
        <ele>89.14</ele>
        <time>2025-10-10T08:57:59.786Z</time>
      </trkpt>
      <trkpt lat="43.71648" lon="4.0226">
        <ele>89.03</ele>
        <time>2025-10-10T08:58:04.791Z</time>
      </trkpt>
      <trkpt lat="43.71649" lon="4.02259">
        <ele>87.8</ele>
        <time>2025-10-10T08:58:10.187Z</time>
      </trkpt>
      <trkpt lat="43.71647" lon="4.02259">
        <ele>88.68</ele>
        <time>2025-10-10T08:58:15.263Z</time>
      </trkpt>
      <trkpt lat="43.71638" lon="4.02258">
        <ele>88.38</ele>
        <time>2025-10-10T08:58:21.029Z</time>
      </trkpt>
      <trkpt lat="43.7163" lon="4.02255">
        <ele>88.14</ele>
        <time>2025-10-10T08:58:26.203Z</time>
      </trkpt>
      <trkpt lat="43.71621" lon="4.02249">
        <ele>87.73</ele>
        <time>2025-10-10T08:58:31.531Z</time>
      </trkpt>
      <trkpt lat="43.71615" lon="4.02246">
        <ele>87.77</ele>
        <time>2025-10-10T08:58:37.026Z</time>
      </trkpt>
      <trkpt lat="43.7161" lon="4.02243">
        <ele>88.18</ele>
        <time>2025-10-10T08:58:42.260Z</time>
      </trkpt>
      <trkpt lat="43.71602" lon="4.0224">
        <ele>88.02</ele>
        <time>2025-10-10T08:58:48.231Z</time>
      </trkpt>
      <trkpt lat="43.71596" lon="4.02236">
        <ele>87.29</ele>
        <time>2025-10-10T08:58:53.251Z</time>
      </trkpt>
      <trkpt lat="43.7159" lon="4.02233">
        <ele>86.52</ele>
        <time>2025-10-10T08:58:58.266Z</time>
      </trkpt>
      <trkpt lat="43.71583" lon="4.02227">
        <ele>86.42</ele>
        <time>2025-10-10T08:59:04.024Z</time>
      </trkpt>
      <trkpt lat="43.71578" lon="4.02222">
        <ele>86.38</ele>
        <time>2025-10-10T08:59:09.258Z</time>
      </trkpt>
      <trkpt lat="43.71572" lon="4.02217">
        <ele>85.86</ele>
        <time>2025-10-10T08:59:15.085Z</time>
      </trkpt>
      <trkpt lat="43.71566" lon="4.02213">
        <ele>85.31</ele>
        <time>2025-10-10T08:59:20.249Z</time>
      </trkpt>
      <trkpt lat="43.71562" lon="4.02206">
        <ele>84.84</ele>
        <time>2025-10-10T08:59:25.264Z</time>
      </trkpt>
      <trkpt lat="43.71558" lon="4.02199">
        <ele>84.16</ele>
        <time>2025-10-10T08:59:30.604Z</time>
      </trkpt>
      <trkpt lat="43.71552" lon="4.02192">
        <ele>83.71</ele>
        <time>2025-10-10T08:59:36.089Z</time>
      </trkpt>
      <trkpt lat="43.71548" lon="4.02185">
        <ele>83.79</ele>
        <time>2025-10-10T08:59:41.271Z</time>
      </trkpt>
      <trkpt lat="43.71543" lon="4.02178">
        <ele>83.63</ele>
        <time>2025-10-10T08:59:47.123Z</time>
      </trkpt>
      <trkpt lat="43.71537" lon="4.02174">
        <ele>83</ele>
        <time>2025-10-10T08:59:52.262Z</time>
      </trkpt>
      <trkpt lat="43.71531" lon="4.0217">
        <ele>82.19</ele>
        <time>2025-10-10T08:59:58.049Z</time>
      </trkpt>
      <trkpt lat="43.71527" lon="4.02165">
        <ele>82.01</ele>
        <time>2025-10-10T09:00:03.253Z</time>
      </trkpt>
      <trkpt lat="43.71523" lon="4.02154">
        <ele>81.05</ele>
        <time>2025-10-10T09:00:09.205Z</time>
      </trkpt>
      <trkpt lat="43.71523" lon="4.02148">
        <ele>80.95</ele>
        <time>2025-10-10T09:00:14.826Z</time>
      </trkpt>
      <trkpt lat="43.7152" lon="4.02147">
        <ele>80.2</ele>
        <time>2025-10-10T09:00:20.219Z</time>
      </trkpt>
      <trkpt lat="43.71513" lon="4.02142">
        <ele>80.15</ele>
        <time>2025-10-10T09:00:26.163Z</time>
      </trkpt>
      <trkpt lat="43.71509" lon="4.02137">
        <ele>79.43</ele>
        <time>2025-10-10T09:00:31.210Z</time>
      </trkpt>
      <trkpt lat="43.71505" lon="4.02134">
        <ele>79.41</ele>
        <time>2025-10-10T09:00:36.869Z</time>
      </trkpt>
      <trkpt lat="43.71506" lon="4.02134">
        <ele>79.44</ele>
        <time>2025-10-10T09:00:42.127Z</time>
      </trkpt>
      <trkpt lat="43.71508" lon="4.02136">
        <ele>79.53</ele>
        <time>2025-10-10T09:00:47.217Z</time>
      </trkpt>
      <trkpt lat="43.71506" lon="4.02137">
        <ele>79.72</ele>
        <time>2025-10-10T09:00:52.232Z</time>
      </trkpt>
      <trkpt lat="43.715" lon="4.02134">
        <ele>79.32</ele>
        <time>2025-10-10T09:00:57.302Z</time>
      </trkpt>
      <trkpt lat="43.71497" lon="4.02128">
        <ele>78.8</ele>
        <time>2025-10-10T09:01:02.364Z</time>
      </trkpt>
      <trkpt lat="43.71491" lon="4.02123">
        <ele>79.53</ele>
        <time>2025-10-10T09:01:08.029Z</time>
      </trkpt>
      <trkpt lat="43.71486" lon="4.0212">
        <ele>79.22</ele>
        <time>2025-10-10T09:01:13.253Z</time>
      </trkpt>
      <trkpt lat="43.7148" lon="4.02118">
        <ele>78.83</ele>
        <time>2025-10-10T09:01:18.744Z</time>
      </trkpt>
      <trkpt lat="43.71481" lon="4.02115">
        <ele>77.91</ele>
        <time>2025-10-10T09:01:24.266Z</time>
      </trkpt>
      <trkpt lat="43.71481" lon="4.02117">
        <ele>77.75</ele>
        <time>2025-10-10T09:01:30.220Z</time>
      </trkpt>
      <trkpt lat="43.71481" lon="4.02118">
        <ele>77.65</ele>
        <time>2025-10-10T09:01:37.263Z</time>
      </trkpt>
      <trkpt lat="43.71482" lon="4.02118">
        <ele>76.35</ele>
        <time>2025-10-10T09:01:51.241Z</time>
      </trkpt>
      <trkpt lat="43.71483" lon="4.02117">
        <ele>77.32</ele>
        <time>2025-10-10T09:02:00.057Z</time>
      </trkpt>
      <trkpt lat="43.71482" lon="4.02116">
        <ele>77.11</ele>
        <time>2025-10-10T09:02:40.057Z</time>
      </trkpt>
      <trkpt lat="43.7148" lon="4.02117">
        <ele>77.14</ele>
        <time>2025-10-10T09:02:45.502Z</time>
      </trkpt>
      <trkpt lat="43.71472" lon="4.02117">
        <ele>77.67</ele>
        <time>2025-10-10T09:02:50.683Z</time>
      </trkpt>
      <trkpt lat="43.71464" lon="4.02117">
        <ele>77.54</ele>
        <time>2025-10-10T09:02:56.096Z</time>
      </trkpt>
      <trkpt lat="43.71458" lon="4.02113">
        <ele>78.17</ele>
        <time>2025-10-10T09:03:01.188Z</time>
      </trkpt>
      <trkpt lat="43.71453" lon="4.02112">
        <ele>77.57</ele>
        <time>2025-10-10T09:03:06.203Z</time>
      </trkpt>
      <trkpt lat="43.71448" lon="4.02115">
        <ele>77.31</ele>
        <time>2025-10-10T09:03:11.218Z</time>
      </trkpt>
      <trkpt lat="43.71443" lon="4.02113">
        <ele>76.42</ele>
        <time>2025-10-10T09:03:16.234Z</time>
      </trkpt>
      <trkpt lat="43.71437" lon="4.02113">
        <ele>76.44</ele>
        <time>2025-10-10T09:03:21.248Z</time>
      </trkpt>
      <trkpt lat="43.71431" lon="4.0211">
        <ele>75.74</ele>
        <time>2025-10-10T09:03:26.264Z</time>
      </trkpt>
      <trkpt lat="43.71426" lon="4.02106">
        <ele>75.46</ele>
        <time>2025-10-10T09:03:31.279Z</time>
      </trkpt>
      <trkpt lat="43.71427" lon="4.02104">
        <ele>73.59</ele>
        <time>2025-10-10T09:03:37.255Z</time>
      </trkpt>
      <trkpt lat="43.71428" lon="4.02105">
        <ele>73.59</ele>
        <time>2025-10-10T09:03:42.270Z</time>
      </trkpt>
      <trkpt lat="43.71429" lon="4.02107">
        <ele>73.59</ele>
        <time>2025-10-10T09:03:47.285Z</time>
      </trkpt>
      <trkpt lat="43.7143" lon="4.02107">
        <ele>73.59</ele>
        <time>2025-10-10T09:03:53.059Z</time>
      </trkpt>
      <trkpt lat="43.71431" lon="4.02108">
        <ele>73.59</ele>
        <time>2025-10-10T09:04:13.214Z</time>
      </trkpt>
      <trkpt lat="43.71431" lon="4.02109">
        <ele>73.59</ele>
        <time>2025-10-10T09:04:25.060Z</time>
      </trkpt>
      <trkpt lat="43.7143" lon="4.0211">
        <ele>73.59</ele>
        <time>2025-10-10T09:04:37.060Z</time>
      </trkpt>
      <trkpt lat="43.71425" lon="4.02112">
        <ele>73.59</ele>
        <time>2025-10-10T09:04:43.200Z</time>
      </trkpt>
      <trkpt lat="43.71426" lon="4.02113">
        <ele>73.59</ele>
        <time>2025-10-10T09:04:49.174Z</time>
      </trkpt>
      <trkpt lat="43.71425" lon="4.02113">
        <ele>73.24</ele>
        <time>2025-10-10T09:04:54.190Z</time>
      </trkpt>
      <trkpt lat="43.71418" lon="4.02113">
        <ele>73.48</ele>
        <time>2025-10-10T09:04:59.206Z</time>
      </trkpt>
      <trkpt lat="43.71411" lon="4.02105">
        <ele>73.59</ele>
        <time>2025-10-10T09:05:04.694Z</time>
      </trkpt>
      <trkpt lat="43.71407" lon="4.02099">
        <ele>73.59</ele>
        <time>2025-10-10T09:05:10.199Z</time>
      </trkpt>
      <trkpt lat="43.71403" lon="4.02094">
        <ele>73.59</ele>
        <time>2025-10-10T09:05:15.212Z</time>
      </trkpt>
      <trkpt lat="43.71398" lon="4.02089">
        <ele>73.59</ele>
        <time>2025-10-10T09:05:20.879Z</time>
      </trkpt>
      <trkpt lat="43.71393" lon="4.02084">
        <ele>73.49</ele>
        <time>2025-10-10T09:05:26.121Z</time>
      </trkpt>
      <trkpt lat="43.71388" lon="4.0208">
        <ele>73.49</ele>
        <time>2025-10-10T09:05:31.219Z</time>
      </trkpt>
      <trkpt lat="43.71382" lon="4.02075">
        <ele>73.58</ele>
        <time>2025-10-10T09:05:36.234Z</time>
      </trkpt>
      <trkpt lat="43.71377" lon="4.02071">
        <ele>71.95</ele>
        <time>2025-10-10T09:05:41.615Z</time>
      </trkpt>
      <trkpt lat="43.71371" lon="4.02069">
        <ele>73.59</ele>
        <time>2025-10-10T09:05:46.698Z</time>
      </trkpt>
      <trkpt lat="43.71365" lon="4.02066">
        <ele>73.49</ele>
        <time>2025-10-10T09:05:52.234Z</time>
      </trkpt>
      <trkpt lat="43.71357" lon="4.02065">
        <ele>73.49</ele>
        <time>2025-10-10T09:05:58.156Z</time>
      </trkpt>
      <trkpt lat="43.7135" lon="4.02065">
        <ele>73.49</ele>
        <time>2025-10-10T09:06:03.231Z</time>
      </trkpt>
      <trkpt lat="43.71343" lon="4.02066">
        <ele>73.59</ele>
        <time>2025-10-10T09:06:08.659Z</time>
      </trkpt>
      <trkpt lat="43.71336" lon="4.02065">
        <ele>73.59</ele>
        <time>2025-10-10T09:06:14.224Z</time>
      </trkpt>
      <trkpt lat="43.71331" lon="4.02064">
        <ele>73.59</ele>
        <time>2025-10-10T09:06:19.239Z</time>
      </trkpt>
      <trkpt lat="43.71326" lon="4.02062">
        <ele>73.49</ele>
        <time>2025-10-10T09:06:24.255Z</time>
      </trkpt>
      <trkpt lat="43.71318" lon="4.02062">
        <ele>73.49</ele>
        <time>2025-10-10T09:06:30.042Z</time>
      </trkpt>
      <trkpt lat="43.71312" lon="4.02057">
        <ele>72.8</ele>
        <time>2025-10-10T09:06:35.596Z</time>
      </trkpt>
      <trkpt lat="43.71306" lon="4.02053">
        <ele>71.79</ele>
        <time>2025-10-10T09:06:41.222Z</time>
      </trkpt>
      <trkpt lat="43.71302" lon="4.02051">
        <ele>71.91</ele>
        <time>2025-10-10T09:06:46.657Z</time>
      </trkpt>
      <trkpt lat="43.71297" lon="4.02049">
        <ele>72.18</ele>
        <time>2025-10-10T09:06:52.214Z</time>
      </trkpt>
      <trkpt lat="43.71292" lon="4.02043">
        <ele>72.13</ele>
        <time>2025-10-10T09:06:57.229Z</time>
      </trkpt>
      <trkpt lat="43.71288" lon="4.02037">
        <ele>73.16</ele>
        <time>2025-10-10T09:07:02.244Z</time>
      </trkpt>
      <trkpt lat="43.71283" lon="4.0203">
        <ele>72.88</ele>
        <time>2025-10-10T09:07:07.270Z</time>
      </trkpt>
      <trkpt lat="43.71278" lon="4.02027">
        <ele>71.97</ele>
        <time>2025-10-10T09:07:12.276Z</time>
      </trkpt>
      <trkpt lat="43.71274" lon="4.02032">
        <ele>71.93</ele>
        <time>2025-10-10T09:07:17.725Z</time>
      </trkpt>
      <trkpt lat="43.7127" lon="4.02037">
        <ele>71.66</ele>
        <time>2025-10-10T09:07:23.172Z</time>
      </trkpt>
      <trkpt lat="43.71266" lon="4.02044">
        <ele>72.14</ele>
        <time>2025-10-10T09:07:28.176Z</time>
      </trkpt>
      <trkpt lat="43.71263" lon="4.02052">
        <ele>71.84</ele>
        <time>2025-10-10T09:07:33.299Z</time>
      </trkpt>
      <trkpt lat="43.7126" lon="4.02061">
        <ele>72.7</ele>
        <time>2025-10-10T09:07:38.949Z</time>
      </trkpt>
      <trkpt lat="43.71259" lon="4.02068">
        <ele>72.81</ele>
        <time>2025-10-10T09:07:44.290Z</time>
      </trkpt>
      <trkpt lat="43.71256" lon="4.02072">
        <ele>73.75</ele>
        <time>2025-10-10T09:07:49.415Z</time>
      </trkpt>
      <trkpt lat="43.71253" lon="4.0208">
        <ele>74.12</ele>
        <time>2025-10-10T09:07:54.718Z</time>
      </trkpt>
      <trkpt lat="43.7125" lon="4.02086">
        <ele>73.36</ele>
        <time>2025-10-10T09:08:00.034Z</time>
      </trkpt>
      <trkpt lat="43.71248" lon="4.02094">
        <ele>71.91</ele>
        <time>2025-10-10T09:08:05.034Z</time>
      </trkpt>
      <trkpt lat="43.7125" lon="4.02105">
        <ele>74.46</ele>
        <time>2025-10-10T09:08:10.938Z</time>
      </trkpt>
      <trkpt lat="43.71255" lon="4.02111">
        <ele>74.73</ele>
        <time>2025-10-10T09:08:16.192Z</time>
      </trkpt>
      <trkpt lat="43.71259" lon="4.02117">
        <ele>74.49</ele>
        <time>2025-10-10T09:08:21.217Z</time>
      </trkpt>
      <trkpt lat="43.71261" lon="4.02124">
        <ele>75.12</ele>
        <time>2025-10-10T09:08:26.810Z</time>
      </trkpt>
      <trkpt lat="43.71261" lon="4.02132">
        <ele>75.18</ele>
        <time>2025-10-10T09:08:31.869Z</time>
      </trkpt>
      <trkpt lat="43.71264" lon="4.02142">
        <ele>75.28</ele>
        <time>2025-10-10T09:08:37.446Z</time>
      </trkpt>
      <trkpt lat="43.71268" lon="4.02148">
        <ele>76.17</ele>
        <time>2025-10-10T09:08:42.729Z</time>
      </trkpt>
      <trkpt lat="43.71271" lon="4.02154">
        <ele>77.45</ele>
        <time>2025-10-10T09:08:48.010Z</time>
      </trkpt>
      <trkpt lat="43.71273" lon="4.02161">
        <ele>78.64</ele>
        <time>2025-10-10T09:08:53.475Z</time>
      </trkpt>
      <trkpt lat="43.71275" lon="4.02169">
        <ele>78.4</ele>
        <time>2025-10-10T09:08:59.010Z</time>
      </trkpt>
      <trkpt lat="43.71277" lon="4.02177">
        <ele>78.35</ele>
        <time>2025-10-10T09:09:04.588Z</time>
      </trkpt>
      <trkpt lat="43.71279" lon="4.02185">
        <ele>79.34</ele>
        <time>2025-10-10T09:09:09.721Z</time>
      </trkpt>
      <trkpt lat="43.71281" lon="4.02192">
        <ele>79.77</ele>
        <time>2025-10-10T09:09:15.218Z</time>
      </trkpt>
      <trkpt lat="43.71281" lon="4.02199">
        <ele>79.15</ele>
        <time>2025-10-10T09:09:20.234Z</time>
      </trkpt>
      <trkpt lat="43.71279" lon="4.02207">
        <ele>79.8</ele>
        <time>2025-10-10T09:09:25.273Z</time>
      </trkpt>
      <trkpt lat="43.71279" lon="4.02215">
        <ele>80.67</ele>
        <time>2025-10-10T09:09:30.287Z</time>
      </trkpt>
      <trkpt lat="43.7128" lon="4.02223">
        <ele>80.33</ele>
        <time>2025-10-10T09:09:35.587Z</time>
      </trkpt>
      <trkpt lat="43.71283" lon="4.02229">
        <ele>80.59</ele>
        <time>2025-10-10T09:09:41.167Z</time>
      </trkpt>
      <trkpt lat="43.71283" lon="4.02236">
        <ele>81.08</ele>
        <time>2025-10-10T09:09:46.782Z</time>
      </trkpt>
      <trkpt lat="43.71284" lon="4.02243">
        <ele>81.3</ele>
        <time>2025-10-10T09:09:52.116Z</time>
      </trkpt>
      <trkpt lat="43.71287" lon="4.02249">
        <ele>81.78</ele>
        <time>2025-10-10T09:09:57.281Z</time>
      </trkpt>
      <trkpt lat="43.71292" lon="4.02256">
        <ele>83.47</ele>
        <time>2025-10-10T09:10:02.860Z</time>
      </trkpt>
      <trkpt lat="43.71296" lon="4.02261">
        <ele>82.68</ele>
        <time>2025-10-10T09:10:08.158Z</time>
      </trkpt>
      <trkpt lat="43.71299" lon="4.02267">
        <ele>82.82</ele>
        <time>2025-10-10T09:10:13.513Z</time>
      </trkpt>
      <trkpt lat="43.71302" lon="4.02274">
        <ele>86.24</ele>
        <time>2025-10-10T09:10:19.274Z</time>
      </trkpt>
      <trkpt lat="43.71303" lon="4.02282">
        <ele>85.41</ele>
        <time>2025-10-10T09:10:24.709Z</time>
      </trkpt>
      <trkpt lat="43.71305" lon="4.02288">
        <ele>85.06</ele>
        <time>2025-10-10T09:10:30.019Z</time>
      </trkpt>
      <trkpt lat="43.71305" lon="4.02294">
        <ele>88.36</ele>
        <time>2025-10-10T09:10:35.271Z</time>
      </trkpt>
      <trkpt lat="43.71306" lon="4.02301">
        <ele>87.67</ele>
        <time>2025-10-10T09:10:40.797Z</time>
      </trkpt>
      <trkpt lat="43.71308" lon="4.02309">
        <ele>86.46</ele>
        <time>2025-10-10T09:10:46.237Z</time>
      </trkpt>
      <trkpt lat="43.71309" lon="4.02315">
        <ele>86.41</ele>
        <time>2025-10-10T09:10:51.277Z</time>
      </trkpt>
      <trkpt lat="43.71311" lon="4.02324">
        <ele>88.77</ele>
        <time>2025-10-10T09:10:56.734Z</time>
      </trkpt>
      <trkpt lat="43.71309" lon="4.02334">
        <ele>87.25</ele>
        <time>2025-10-10T09:11:01.855Z</time>
      </trkpt>
      <trkpt lat="43.71311" lon="4.02342">
        <ele>87.82</ele>
        <time>2025-10-10T09:11:06.896Z</time>
      </trkpt>
      <trkpt lat="43.71311" lon="4.02349">
        <ele>88.77</ele>
        <time>2025-10-10T09:11:11.920Z</time>
      </trkpt>
      <trkpt lat="43.71309" lon="4.02358">
        <ele>89.77</ele>
        <time>2025-10-10T09:11:17.208Z</time>
      </trkpt>
      <trkpt lat="43.71307" lon="4.02364">
        <ele>90.88</ele>
        <time>2025-10-10T09:11:22.224Z</time>
      </trkpt>
      <trkpt lat="43.71306" lon="4.02372">
        <ele>91.87</ele>
        <time>2025-10-10T09:11:27.294Z</time>
      </trkpt>
      <trkpt lat="43.71304" lon="4.02381">
        <ele>89.63</ele>
        <time>2025-10-10T09:11:32.880Z</time>
      </trkpt>
      <trkpt lat="43.71303" lon="4.02389">
        <ele>89.38</ele>
        <time>2025-10-10T09:11:37.896Z</time>
      </trkpt>
      <trkpt lat="43.71301" lon="4.02397">
        <ele>90.73</ele>
        <time>2025-10-10T09:11:43.491Z</time>
      </trkpt>
      <trkpt lat="43.71299" lon="4.02405">
        <ele>90.94</ele>
        <time>2025-10-10T09:11:49.101Z</time>
      </trkpt>
      <trkpt lat="43.71301" lon="4.02412">
        <ele>90.9</ele>
        <time>2025-10-10T09:11:54.124Z</time>
      </trkpt>
      <trkpt lat="43.71302" lon="4.0242">
        <ele>91.95</ele>
        <time>2025-10-10T09:11:59.602Z</time>
      </trkpt>
      <trkpt lat="43.71303" lon="4.02427">
        <ele>90.19</ele>
        <time>2025-10-10T09:12:04.761Z</time>
      </trkpt>
      <trkpt lat="43.71301" lon="4.02438">
        <ele>90.07</ele>
        <time>2025-10-10T09:12:09.821Z</time>
      </trkpt>
      <trkpt lat="43.71302" lon="4.02447">
        <ele>92.33</ele>
        <time>2025-10-10T09:12:15.023Z</time>
      </trkpt>
      <trkpt lat="43.71306" lon="4.02451">
        <ele>95.91</ele>
        <time>2025-10-10T09:12:20.275Z</time>
      </trkpt>
      <trkpt lat="43.71311" lon="4.02454">
        <ele>94.94</ele>
        <time>2025-10-10T09:12:25.799Z</time>
      </trkpt>
      <trkpt lat="43.71316" lon="4.02458">
        <ele>92.99</ele>
        <time>2025-10-10T09:12:30.959Z</time>
      </trkpt>
      <trkpt lat="43.71319" lon="4.0246">
        <ele>94.75</ele>
        <time>2025-10-10T09:12:36.281Z</time>
      </trkpt>
      <trkpt lat="43.71318" lon="4.02461">
        <ele>92.38</ele>
        <time>2025-10-10T09:12:41.717Z</time>
      </trkpt>
      <trkpt lat="43.71318" lon="4.02463">
        <ele>89.83</ele>
        <time>2025-10-10T09:12:57.070Z</time>
      </trkpt>
    </trkseg>
  </trk>
</gpx>